AFR196 LFPG-VTBS
Flight info
| Callsign | AFR196 |
|---|---|
| Flight time | N/A |
| Altitude | 37000 |
| Route | LANVI DCT BEGAR DCT TRA DCT GAMSA DCT GEDSO DCT ABTAN DCT GOTAR DCT TEGRI DCT OPT DCT LUGEB DCT UDROS UN743 GAKSU UT310 SIN UM860 CRM UM11 IPSAT/N0491F390 UM11 REBLO M11 RODAR A909 TUNEK B143 KRS A240 INRAK B449 DOLOS B475 NINOP A909 LEMOD N644 DI A466 SULOM M890 CHG/N0485F410 M890 LKN R460 CEA L507 IGONI |
| Aircraft | A359/H-SDE2E3GHIJ3J4J5LM1ORWXY/LB1D1 |
Departure
| Time | N/A |
|---|---|
| Airport | Charles de Gaulle International Airport (LFPG) |
Arrival
| Time | 2026-05-05 17:56 |
|---|---|
| Airport | Suvarnabhumi Airport (VTBS) |
| Time | Latitude | Longitude | Altitude | Speed | Heading |
|---|---|---|---|---|---|
| 2026-05-05 09:39 | 42.57032 | 31.44652 | 37033 ft | 488 kts | 103° |
| 2026-05-05 09:39 | 42.56131 | 31.49097 | 37035 ft | 488 kts | 103° |
| 2026-05-05 09:40 | 42.54324 | 31.57982 | 37031 ft | 489 kts | 103° |
| 2026-05-05 09:40 | 42.52503 | 31.66897 | 37029 ft | 489 kts | 103° |
| 2026-05-05 09:41 | 42.50697 | 31.75704 | 37025 ft | 489 kts | 103° |
| 2026-05-05 09:41 | 42.48867 | 31.84582 | 37027 ft | 488 kts | 103° |
| 2026-05-05 09:42 | 42.47038 | 31.93423 | 37009 ft | 488 kts | 103° |
| 2026-05-05 09:42 | 42.45199 | 32.02275 | 37030 ft | 488 kts | 103° |
| 2026-05-05 09:43 | 42.43354 | 32.11115 | 37011 ft | 487 kts | 103° |
| 2026-05-05 09:43 | 42.41506 | 32.19927 | 37016 ft | 487 kts | 103° |
| 2026-05-05 09:44 | 42.39651 | 32.28742 | 37016 ft | 486 kts | 103° |
| 2026-05-05 09:44 | 42.37789 | 32.37550 | 37023 ft | 486 kts | 103° |
| 2026-05-05 09:45 | 42.35925 | 32.46329 | 37021 ft | 486 kts | 104° |
| 2026-05-05 09:45 | 42.34062 | 32.55075 | 37027 ft | 485 kts | 104° |
| 2026-05-05 09:46 | 42.32723 | 32.63978 | 37022 ft | 482 kts | 97° |
| 2026-05-05 09:46 | 42.31693 | 32.72939 | 37030 ft | 482 kts | 96° |
| 2026-05-05 09:47 | 42.30694 | 32.81903 | 37028 ft | 482 kts | 96° |
| 2026-05-05 09:47 | 42.29688 | 32.90801 | 37027 ft | 482 kts | 96° |
| 2026-05-05 09:48 | 42.28662 | 32.99737 | 37029 ft | 482 kts | 96° |
| 2026-05-05 09:48 | 42.27624 | 33.08690 | 37027 ft | 482 kts | 96° |
| 2026-05-05 09:49 | 42.26579 | 33.17627 | 37026 ft | 482 kts | 96° |
| 2026-05-05 09:49 | 42.25527 | 33.26574 | 37025 ft | 482 kts | 97° |
| 2026-05-05 09:50 | 42.24469 | 33.35507 | 37027 ft | 482 kts | 97° |
| 2026-05-05 09:50 | 42.23403 | 33.44452 | 37023 ft | 482 kts | 97° |
| 2026-05-05 09:51 | 42.22329 | 33.53392 | 37027 ft | 482 kts | 97° |
| 2026-05-05 09:51 | 42.21257 | 33.62267 | 37029 ft | 482 kts | 97° |
| 2026-05-05 09:52 | 42.20171 | 33.71199 | 37027 ft | 483 kts | 97° |
| 2026-05-05 09:52 | 42.19073 | 33.80158 | 37025 ft | 483 kts | 97° |
| 2026-05-05 09:53 | 42.17977 | 33.89102 | 37025 ft | 483 kts | 97° |
| 2026-05-05 09:53 | 42.16873 | 33.97993 | 37027 ft | 484 kts | 98° |
| 2026-05-05 09:54 | 42.15753 | 34.06943 | 37023 ft | 484 kts | 98° |
| 2026-05-05 09:54 | 42.14627 | 34.15894 | 37026 ft | 485 kts | 98° |
| 2026-05-05 09:55 | 42.13492 | 34.24867 | 37028 ft | 485 kts | 98° |
| 2026-05-05 09:55 | 42.12351 | 34.33836 | 37027 ft | 485 kts | 98° |
| 2026-05-05 09:56 | 42.11209 | 34.42755 | 37024 ft | 485 kts | 98° |
| 2026-05-05 09:56 | 42.10019 | 34.51707 | 37023 ft | 486 kts | 99° |
| 2026-05-05 09:57 | 42.08763 | 34.60657 | 37025 ft | 486 kts | 99° |
| 2026-05-05 09:57 | 42.07505 | 34.69587 | 37020 ft | 485 kts | 99° |
| 2026-05-05 09:58 | 42.06252 | 34.78513 | 37023 ft | 486 kts | 99° |
| 2026-05-05 09:58 | 42.04997 | 34.87439 | 37020 ft | 485 kts | 99° |
| 2026-05-05 09:59 | 42.03794 | 34.96334 | 37017 ft | 485 kts | 99° |
| 2026-05-05 09:59 | 42.02405 | 35.05211 | 37025 ft | 486 kts | 107° |
| 2026-05-05 10:00 | 41.99436 | 35.13377 | 37016 ft | 488 kts | 121° |
| 2026-05-05 10:00 | 41.95667 | 35.20983 | 37016 ft | 489 kts | 123° |
| 2026-05-05 10:01 | 41.91824 | 35.28476 | 37018 ft | 490 kts | 123° |
| 2026-05-05 10:01 | 41.87971 | 35.36023 | 37015 ft | 490 kts | 123° |
| 2026-05-05 10:02 | 41.84131 | 35.43579 | 37020 ft | 490 kts | 123° |
| 2026-05-05 10:02 | 41.80289 | 35.51139 | 37009 ft | 491 kts | 123° |
| 2026-05-05 10:03 | 41.76435 | 35.58701 | 37007 ft | 491 kts | 123° |
| 2026-05-05 10:03 | 41.72566 | 35.66269 | 37005 ft | 492 kts | 124° |
| 2026-05-05 10:04 | 41.68721 | 35.73773 | 37009 ft | 492 kts | 124° |
| 2026-05-05 10:04 | 41.64853 | 35.81304 | 37004 ft | 492 kts | 124° |
| 2026-05-05 10:05 | 41.60968 | 35.88848 | 37005 ft | 492 kts | 124° |
| 2026-05-05 10:05 | 41.57081 | 35.96377 | 37005 ft | 492 kts | 124° |
| 2026-05-05 10:06 | 41.53212 | 36.03853 | 37005 ft | 492 kts | 124° |
| 2026-05-05 10:06 | 41.49317 | 36.11358 | 37005 ft | 492 kts | 124° |
| 2026-05-05 10:07 | 41.45419 | 36.18853 | 37008 ft | 492 kts | 124° |
| 2026-05-05 10:07 | 41.42173 | 36.25082 | 37011 ft | 492 kts | 124° |
| 2026-05-05 10:08 | 41.38259 | 36.32575 | 37016 ft | 492 kts | 125° |
| 2026-05-05 10:08 | 41.34347 | 36.40045 | 37018 ft | 492 kts | 125° |
| 2026-05-05 10:09 | 41.30437 | 36.47494 | 37019 ft | 492 kts | 125° |
| 2026-05-05 10:09 | 41.27140 | 36.55494 | 37020 ft | 493 kts | 110° |
| 2026-05-05 10:10 | 41.25779 | 36.64432 | 37019 ft | 495 kts | 97° |
| 2026-05-05 10:10 | 41.25102 | 36.73562 | 37016 ft | 497 kts | 96° |
| 2026-05-05 10:11 | 41.24481 | 36.82656 | 37013 ft | 497 kts | 96° |
| 2026-05-05 10:11 | 41.23817 | 36.91796 | 37013 ft | 497 kts | 96° |
| 2026-05-05 10:12 | 41.23124 | 37.00930 | 37009 ft | 497 kts | 97° |
| 2026-05-05 10:12 | 41.22417 | 37.10083 | 37008 ft | 497 kts | 97° |
| 2026-05-05 10:13 | 41.21707 | 37.19177 | 37011 ft | 498 kts | 97° |
| 2026-05-05 10:13 | 41.21005 | 37.28320 | 37009 ft | 497 kts | 97° |
| 2026-05-05 10:14 | 41.20337 | 37.37472 | 37013 ft | 497 kts | 97° |
| 2026-05-05 10:14 | 41.19666 | 37.46614 | 37012 ft | 497 kts | 97° |
| 2026-05-05 10:15 | 41.18982 | 37.55751 | 37006 ft | 497 kts | 97° |
| 2026-05-05 10:15 | 41.18432 | 37.64914 | 37012 ft | 497 kts | 96° |
| 2026-05-05 10:16 | 41.17751 | 37.73981 | 37013 ft | 497 kts | 98° |
| 2026-05-05 10:16 | 41.16935 | 37.83108 | 37015 ft | 497 kts | 98° |
| 2026-05-05 10:17 | 41.16129 | 37.92229 | 37016 ft | 497 kts | 98° |
| 2026-05-05 10:17 | 41.15399 | 38.01283 | 37016 ft | 497 kts | 98° |
| 2026-05-05 10:18 | 41.14677 | 38.10421 | 37014 ft | 497 kts | 98° |
| 2026-05-05 10:18 | 41.13943 | 38.19525 | 37013 ft | 497 kts | 98° |
| 2026-05-05 10:19 | 41.13194 | 38.28653 | 37011 ft | 497 kts | 98° |
| 2026-05-05 10:19 | 41.12441 | 38.37773 | 37007 ft | 497 kts | 98° |
| 2026-05-05 10:20 | 41.11683 | 38.46892 | 37006 ft | 497 kts | 98° |
| 2026-05-05 10:20 | 41.10921 | 38.55984 | 36997 ft | 497 kts | 98° |
| 2026-05-05 10:21 | 41.10152 | 38.65091 | 37296 ft | 498 kts | 98° |
| 2026-05-05 10:21 | 41.09760 | 38.69633 | 37536 ft | 496 kts | 99° |
| 2026-05-05 10:21 | 41.09362 | 38.74194 | 37746 ft | 496 kts | 99° |
| 2026-05-05 10:22 | 41.08954 | 38.78729 | 37957 ft | 496 kts | 99° |
| 2026-05-05 10:22 | 41.08537 | 38.83279 | 38161 ft | 496 kts | 99° |
| 2026-05-05 10:22 | 41.08120 | 38.87802 | 38381 ft | 495 kts | 99° |
| 2026-05-05 10:22 | 41.07703 | 38.92330 | 38591 ft | 494 kts | 99° |
| 2026-05-05 10:23 | 41.07287 | 38.96848 | 38736 ft | 494 kts | 99° |
| 2026-05-05 10:23 | 41.06870 | 39.01371 | 38846 ft | 495 kts | 99° |
| 2026-05-05 10:23 | 41.06451 | 39.05902 | 38957 ft | 495 kts | 99° |
| 2026-05-05 10:23 | 41.06036 | 39.10382 | 38995 ft | 497 kts | 99° |
| 2026-05-05 10:24 | 41.05188 | 39.19522 | 39005 ft | 500 kts | 99° |
| 2026-05-05 10:24 | 41.04349 | 39.28665 | 39007 ft | 499 kts | 99° |
| 2026-05-05 10:25 | 41.03505 | 39.37797 | 39003 ft | 499 kts | 99° |
| 2026-05-05 10:25 | 41.02651 | 39.46917 | 39002 ft | 499 kts | 99° |
| 2026-05-05 10:26 | 41.01785 | 39.56067 | 39001 ft | 500 kts | 99° |
| 2026-05-05 10:26 | 41.00916 | 39.65195 | 38990 ft | 500 kts | 100° |
| 2026-05-05 10:27 | 41.00042 | 39.74274 | 39000 ft | 501 kts | 99° |
| 2026-05-05 10:27 | 40.99447 | 39.83482 | 38992 ft | 503 kts | 95° |
| 2026-05-05 10:28 | 40.99201 | 39.92739 | 38993 ft | 503 kts | 94° |
| 2026-05-05 10:28 | 40.98990 | 40.02028 | 38992 ft | 504 kts | 94° |
| 2026-05-05 10:29 | 40.98769 | 40.11242 | 38986 ft | 504 kts | 94° |
| 2026-05-05 10:29 | 40.98533 | 40.20512 | 38994 ft | 504 kts | 95° |
| 2026-05-05 10:30 | 40.98283 | 40.29828 | 38980 ft | 503 kts | 95° |
| 2026-05-05 10:30 | 40.98025 | 40.39041 | 38995 ft | 503 kts | 95° |
| 2026-05-05 10:31 | 40.97759 | 40.48310 | 38993 ft | 503 kts | 95° |
| 2026-05-05 10:31 | 40.97487 | 40.57562 | 38992 ft | 503 kts | 95° |
| 2026-05-05 10:32 | 40.97206 | 40.66825 | 38991 ft | 503 kts | 95° |
| 2026-05-05 10:32 | 40.96921 | 40.76020 | 38989 ft | 503 kts | 95° |
| 2026-05-05 10:33 | 40.96627 | 40.85274 | 38987 ft | 503 kts | 95° |
| 2026-05-05 10:33 | 40.96329 | 40.94548 | 38989 ft | 503 kts | 96° |
| 2026-05-05 10:34 | 40.96017 | 41.03808 | 38986 ft | 504 kts | 96° |
| 2026-05-05 10:34 | 40.95696 | 41.13074 | 38974 ft | 504 kts | 96° |
| 2026-05-05 10:35 | 40.95370 | 41.22343 | 38950 ft | 505 kts | 96° |
| 2026-05-05 10:35 | 40.95037 | 41.31572 | 38947 ft | 506 kts | 96° |
| 2026-05-05 10:36 | 40.94698 | 41.40887 | 38944 ft | 508 kts | 96° |
| 2026-05-05 10:36 | 40.94347 | 41.50236 | 38931 ft | 508 kts | 96° |
| 2026-05-05 10:37 | 40.93992 | 41.59566 | 38920 ft | 508 kts | 96° |
| 2026-05-05 10:37 | 40.93627 | 41.68886 | 38918 ft | 508 kts | 96° |
| 2026-05-05 10:38 | 40.93255 | 41.78188 | 38914 ft | 508 kts | 96° |
| 2026-05-05 10:38 | 40.92875 | 41.87527 | 38908 ft | 508 kts | 96° |
| 2026-05-05 10:39 | 40.92486 | 41.96863 | 38911 ft | 509 kts | 96° |
| 2026-05-05 10:39 | 40.92090 | 42.06229 | 38918 ft | 509 kts | 96° |
| 2026-05-05 10:40 | 40.91687 | 42.15575 | 38918 ft | 509 kts | 97° |
| 2026-05-05 10:40 | 40.91277 | 42.24900 | 38933 ft | 510 kts | 97° |
| 2026-05-05 10:41 | 40.90858 | 42.34253 | 38937 ft | 510 kts | 97° |
| 2026-05-05 10:41 | 40.90431 | 42.43619 | 38943 ft | 510 kts | 97° |
| 2026-05-05 10:42 | 40.89776 | 42.57615 | 38958 ft | 511 kts | 97° |
| 2026-05-05 10:43 | 40.89330 | 42.66981 | 38959 ft | 510 kts | 97° |
| 2026-05-05 10:43 | 40.88878 | 42.76337 | 38961 ft | 510 kts | 97° |
| 2026-05-05 10:44 | 40.88416 | 42.85715 | 38965 ft | 510 kts | 97° |
| 2026-05-05 10:44 | 40.87947 | 42.95078 | 38965 ft | 511 kts | 97° |
| 2026-05-05 10:45 | 40.87468 | 43.04479 | 38965 ft | 511 kts | 97° |
| 2026-05-05 10:45 | 40.86987 | 43.13789 | 38962 ft | 512 kts | 97° |
| 2026-05-05 10:46 | 40.86493 | 43.23189 | 38962 ft | 512 kts | 97° |
| 2026-05-05 10:46 | 40.85992 | 43.32581 | 38957 ft | 513 kts | 98° |
| 2026-05-05 10:47 | 40.85483 | 43.41995 | 38948 ft | 513 kts | 98° |
| 2026-05-05 10:47 | 40.84969 | 43.51338 | 38953 ft | 513 kts | 98° |
| 2026-05-05 10:48 | 40.84442 | 43.60770 | 38959 ft | 514 kts | 98° |
| 2026-05-05 10:48 | 40.83911 | 43.70192 | 38961 ft | 514 kts | 98° |
| 2026-05-05 10:49 | 40.83558 | 43.79591 | 38956 ft | 516 kts | 96° |
| 2026-05-05 10:49 | 40.83306 | 43.89063 | 38968 ft | 516 kts | 96° |
| 2026-05-05 10:50 | 40.83019 | 43.98561 | 38967 ft | 517 kts | 96° |
| 2026-05-05 10:50 | 40.82698 | 44.08056 | 38958 ft | 517 kts | 97° |
| 2026-05-05 10:51 | 40.82361 | 44.17558 | 38947 ft | 517 kts | 97° |
| 2026-05-05 10:51 | 40.82019 | 44.26981 | 38931 ft | 518 kts | 97° |
| 2026-05-05 10:52 | 40.81668 | 44.36501 | 38919 ft | 518 kts | 97° |
| 2026-05-05 10:52 | 40.81312 | 44.46005 | 38909 ft | 518 kts | 97° |
| 2026-05-05 10:53 | 40.80952 | 44.55514 | 38908 ft | 519 kts | 97° |
| 2026-05-05 10:53 | 40.80577 | 44.64968 | 38902 ft | 519 kts | 98° |
| 2026-05-05 10:54 | 40.80189 | 44.74490 | 38902 ft | 519 kts | 97° |
| 2026-05-05 10:54 | 40.79796 | 44.84035 | 38904 ft | 520 kts | 97° |
| 2026-05-05 10:55 | 40.79397 | 44.93581 | 38912 ft | 521 kts | 97° |
| 2026-05-05 10:55 | 40.78991 | 45.03136 | 38908 ft | 522 kts | 98° |
| 2026-05-05 10:56 | 40.78576 | 45.12714 | 38903 ft | 522 kts | 98° |
| 2026-05-05 10:56 | 40.78154 | 45.22215 | 38912 ft | 523 kts | 98° |
| 2026-05-05 10:57 | 40.77717 | 45.31810 | 38911 ft | 524 kts | 98° |
| 2026-05-05 10:57 | 40.77351 | 45.39807 | 38911 ft | 524 kts | 98° |
| 2026-05-05 10:58 | 40.76902 | 45.49412 | 38916 ft | 525 kts | 98° |
| 2026-05-05 10:58 | 40.76268 | 45.58995 | 38918 ft | 523 kts | 102° |
| 2026-05-05 10:59 | 40.75319 | 45.68518 | 38923 ft | 523 kts | 102° |
| 2026-05-05 10:59 | 40.74376 | 45.78003 | 38917 ft | 524 kts | 102° |
| 2026-05-05 11:00 | 40.73477 | 45.87555 | 38925 ft | 525 kts | 102° |
| 2026-05-05 11:00 | 40.72593 | 45.97138 | 38920 ft | 526 kts | 102° |
| 2026-05-05 11:01 | 40.71705 | 46.06680 | 38914 ft | 527 kts | 102° |
| 2026-05-05 11:01 | 40.70806 | 46.16259 | 38912 ft | 527 kts | 102° |
| 2026-05-05 11:02 | 40.69892 | 46.25865 | 38911 ft | 527 kts | 102° |
| 2026-05-05 11:02 | 40.68969 | 46.35467 | 38908 ft | 527 kts | 102° |
| 2026-05-05 11:03 | 40.68046 | 46.44992 | 38913 ft | 528 kts | 102° |
| 2026-05-05 11:03 | 40.67108 | 46.54587 | 38914 ft | 527 kts | 102° |
| 2026-05-05 11:04 | 40.66163 | 46.64176 | 38907 ft | 527 kts | 102° |
| 2026-05-05 11:04 | 40.65211 | 46.73761 | 38909 ft | 527 kts | 102° |
| 2026-05-05 11:05 | 40.64257 | 46.83277 | 38911 ft | 527 kts | 102° |
| 2026-05-05 11:05 | 40.63290 | 46.92835 | 38910 ft | 527 kts | 103° |
| 2026-05-05 11:06 | 40.62314 | 47.02401 | 38910 ft | 527 kts | 103° |
| 2026-05-05 11:06 | 40.61332 | 47.11957 | 38906 ft | 527 kts | 103° |
| 2026-05-05 11:07 | 40.60598 | 47.21561 | 38908 ft | 531 kts | 97° |
| 2026-05-05 11:07 | 40.60286 | 47.31287 | 38907 ft | 531 kts | 97° |
| 2026-05-05 11:08 | 40.60023 | 47.40947 | 38911 ft | 532 kts | 97° |
| 2026-05-05 11:08 | 40.59748 | 47.50679 | 38907 ft | 532 kts | 97° |
| 2026-05-05 11:09 | 40.59457 | 47.60396 | 38913 ft | 532 kts | 97° |
| 2026-05-05 11:09 | 40.59153 | 47.70131 | 38911 ft | 532 kts | 97° |
| 2026-05-05 11:10 | 40.58841 | 47.79861 | 38912 ft | 532 kts | 97° |
| 2026-05-05 11:10 | 40.58520 | 47.89596 | 38911 ft | 532 kts | 97° |
| 2026-05-05 11:11 | 40.58869 | 47.99375 | 38912 ft | 539 kts | 86° |
| 2026-05-05 11:11 | 40.59964 | 48.09159 | 38914 ft | 541 kts | 85° |
| 2026-05-05 11:12 | 40.61147 | 48.18939 | 38918 ft | 541 kts | 85° |
| 2026-05-05 11:12 | 40.62310 | 48.28645 | 38918 ft | 540 kts | 85° |
| 2026-05-05 11:13 | 40.63450 | 48.38433 | 38909 ft | 540 kts | 85° |
| 2026-05-05 11:13 | 40.64574 | 48.48219 | 38906 ft | 540 kts | 85° |
| 2026-05-05 11:14 | 40.65692 | 48.58010 | 38906 ft | 540 kts | 85° |
| 2026-05-05 11:14 | 40.66802 | 48.67795 | 38905 ft | 540 kts | 85° |
| 2026-05-05 11:15 | 40.67897 | 48.77508 | 38903 ft | 539 kts | 85° |
| 2026-05-05 11:15 | 40.68990 | 48.87280 | 38897 ft | 538 kts | 85° |
| 2026-05-05 11:16 | 40.70073 | 48.97048 | 38910 ft | 538 kts | 85° |
| 2026-05-05 11:16 | 40.71146 | 49.06806 | 38908 ft | 538 kts | 85° |
| 2026-05-05 11:17 | 40.72211 | 49.16565 | 38909 ft | 537 kts | 85° |
| 2026-05-05 11:17 | 40.72665 | 49.26314 | 38918 ft | 527 kts | 101° |
| 2026-05-05 11:18 | 40.71731 | 49.35799 | 38918 ft | 524 kts | 104° |
| 2026-05-05 11:18 | 40.70585 | 49.45266 | 38919 ft | 524 kts | 104° |
| 2026-05-05 11:19 | 40.69415 | 49.54770 | 38918 ft | 524 kts | 104° |
| 2026-05-05 11:19 | 40.68257 | 49.64261 | 38915 ft | 525 kts | 104° |
| 2026-05-05 11:20 | 40.67096 | 49.73780 | 38911 ft | 526 kts | 104° |
| 2026-05-05 11:20 | 40.65929 | 49.83302 | 38904 ft | 526 kts | 104° |
| 2026-05-05 11:21 | 40.64755 | 49.92821 | 38895 ft | 527 kts | 105° |
| 2026-05-05 11:21 | 40.63579 | 50.02277 | 38892 ft | 527 kts | 105° |
| 2026-05-05 11:22 | 40.62387 | 50.11803 | 38889 ft | 527 kts | 105° |
| 2026-05-05 11:22 | 40.61184 | 50.21347 | 38892 ft | 527 kts | 105° |
| 2026-05-05 11:23 | 40.59976 | 50.30862 | 38901 ft | 527 kts | 105° |
| 2026-05-05 11:23 | 40.58760 | 50.40378 | 38904 ft | 528 kts | 105° |
| 2026-05-05 11:24 | 40.57536 | 50.49893 | 38921 ft | 528 kts | 105° |
| 2026-05-05 11:24 | 40.56311 | 50.59354 | 38923 ft | 528 kts | 105° |
| 2026-05-05 11:25 | 40.55069 | 50.68881 | 38925 ft | 528 kts | 105° |
| 2026-05-05 11:25 | 40.53821 | 50.78385 | 38931 ft | 528 kts | 105° |
| 2026-05-05 11:26 | 40.52560 | 50.87924 | 38934 ft | 528 kts | 105° |
| 2026-05-05 11:26 | 40.51359 | 50.97465 | 38940 ft | 531 kts | 103° |
| 2026-05-05 11:27 | 40.50519 | 51.07102 | 38935 ft | 533 kts | 101° |
| 2026-05-05 11:27 | 40.49729 | 51.16796 | 38941 ft | 533 kts | 101° |
| 2026-05-05 11:28 | 40.48873 | 51.26466 | 38944 ft | 533 kts | 102° |
| 2026-05-05 11:28 | 40.47975 | 51.36116 | 38943 ft | 533 kts | 102° |
| 2026-05-05 11:29 | 40.47066 | 51.45726 | 38939 ft | 533 kts | 102° |
| 2026-05-05 11:29 | 40.45705 | 51.55241 | 38939 ft | 528 kts | 108° |
| 2026-05-05 11:30 | 40.44011 | 51.64638 | 38935 ft | 528 kts | 109° |
| 2026-05-05 11:30 | 40.42274 | 51.74003 | 38937 ft | 528 kts | 109° |
| 2026-05-05 11:31 | 40.40532 | 51.83391 | 38933 ft | 529 kts | 109° |
| 2026-05-05 11:31 | 40.38791 | 51.92774 | 38937 ft | 529 kts | 109° |
| 2026-05-05 11:32 | 40.37043 | 52.02168 | 38937 ft | 530 kts | 109° |
| 2026-05-05 11:32 | 40.35300 | 52.11488 | 38932 ft | 530 kts | 109° |
| 2026-05-05 11:33 | 40.33535 | 52.20881 | 38931 ft | 530 kts | 109° |
| 2026-05-05 11:33 | 40.31762 | 52.30268 | 38929 ft | 530 kts | 109° |
| 2026-05-05 11:34 | 40.29980 | 52.39658 | 38935 ft | 531 kts | 109° |
| 2026-05-05 11:34 | 40.28199 | 52.48998 | 38937 ft | 531 kts | 109° |
| 2026-05-05 11:35 | 40.26088 | 52.58191 | 38936 ft | 522 kts | 120° |
| 2026-05-05 11:35 | 40.22463 | 52.66259 | 38920 ft | 511 kts | 130° |
| 2026-05-05 11:36 | 40.18435 | 52.73945 | 38908 ft | 511 kts | 131° |
| 2026-05-05 11:36 | 40.14372 | 52.81567 | 38895 ft | 511 kts | 131° |
| 2026-05-05 11:37 | 40.10324 | 52.89199 | 38880 ft | 511 kts | 131° |
| 2026-05-05 11:37 | 40.06282 | 52.96845 | 38882 ft | 512 kts | 131° |
| 2026-05-05 11:38 | 40.02895 | 53.05137 | 38882 ft | 524 kts | 118° |
| 2026-05-05 11:38 | 40.00292 | 53.14042 | 38885 ft | 526 kts | 116° |
| 2026-05-05 11:39 | 39.97800 | 53.22966 | 38889 ft | 527 kts | 116° |
| 2026-05-05 11:39 | 39.95273 | 53.31942 | 38886 ft | 527 kts | 116° |
| 2026-05-05 11:40 | 39.92724 | 53.40880 | 38882 ft | 527 kts | 116° |
| 2026-05-05 11:40 | 39.90154 | 53.49826 | 38874 ft | 527 kts | 116° |
| 2026-05-05 11:41 | 39.87577 | 53.58769 | 38868 ft | 527 kts | 116° |
| 2026-05-05 11:41 | 39.84987 | 53.67725 | 38859 ft | 528 kts | 116° |
| 2026-05-05 11:42 | 39.82409 | 53.76614 | 38854 ft | 529 kts | 116° |
| 2026-05-05 11:42 | 39.79804 | 53.85567 | 38857 ft | 529 kts | 116° |
| 2026-05-05 11:43 | 39.77185 | 53.94538 | 38844 ft | 530 kts | 116° |
| 2026-05-05 11:43 | 39.74563 | 54.03488 | 38839 ft | 530 kts | 116° |
| 2026-05-05 11:44 | 39.71929 | 54.12450 | 38842 ft | 531 kts | 116° |
| 2026-05-05 11:44 | 39.69734 | 54.19893 | 38839 ft | 531 kts | 116° |
| 2026-05-05 11:45 | 39.67083 | 54.28855 | 38838 ft | 531 kts | 116° |
| 2026-05-05 11:45 | 39.63996 | 54.39255 | 38835 ft | 531 kts | 116° |
| 2026-05-05 11:46 | 39.61778 | 54.46702 | 38836 ft | 531 kts | 116° |
| 2026-05-05 11:46 | 39.59109 | 54.55635 | 38830 ft | 532 kts | 116° |
| 2026-05-05 11:47 | 39.56431 | 54.64582 | 38819 ft | 532 kts | 116° |
| 2026-05-05 11:47 | 39.53741 | 54.73519 | 38825 ft | 532 kts | 116° |
| 2026-05-05 11:48 | 39.49696 | 54.86908 | 38814 ft | 532 kts | 116° |
| 2026-05-05 11:48 | 39.46988 | 54.95838 | 38806 ft | 532 kts | 116° |
| 2026-05-05 11:49 | 39.44282 | 55.04730 | 38802 ft | 531 kts | 116° |
| 2026-05-05 11:49 | 39.41586 | 55.13564 | 38799 ft | 531 kts | 116° |
| 2026-05-05 11:50 | 39.38872 | 55.22427 | 38794 ft | 531 kts | 116° |
| 2026-05-05 11:50 | 39.36148 | 55.31294 | 38794 ft | 530 kts | 116° |
| 2026-05-05 11:51 | 39.33420 | 55.40143 | 38789 ft | 530 kts | 116° |
| 2026-05-05 11:51 | 39.30683 | 55.48994 | 38790 ft | 530 kts | 116° |
| 2026-05-05 11:52 | 39.27942 | 55.57826 | 38787 ft | 529 kts | 116° |
| 2026-05-05 11:52 | 39.24858 | 55.66341 | 38783 ft | 526 kts | 122° |
| 2026-05-05 11:53 | 39.21465 | 55.74772 | 38786 ft | 526 kts | 122° |
| 2026-05-05 11:53 | 39.18157 | 55.83128 | 38791 ft | 527 kts | 121° |
| 2026-05-05 11:54 | 39.14879 | 55.91578 | 38790 ft | 527 kts | 121° |
| 2026-05-05 11:54 | 39.11618 | 56.00026 | 38787 ft | 527 kts | 121° |
| 2026-05-05 11:55 | 39.08337 | 56.08502 | 38781 ft | 528 kts | 121° |
| 2026-05-05 11:55 | 39.05072 | 56.16901 | 38794 ft | 528 kts | 121° |
| 2026-05-05 11:56 | 39.01779 | 56.25349 | 38787 ft | 528 kts | 121° |
| 2026-05-05 11:56 | 38.98863 | 56.34055 | 38788 ft | 533 kts | 114° |
| 2026-05-05 11:57 | 38.96368 | 56.43026 | 38786 ft | 533 kts | 113° |
| 2026-05-05 11:57 | 38.93917 | 56.52034 | 38781 ft | 534 kts | 113° |
| 2026-05-05 11:58 | 38.91451 | 56.61035 | 38785 ft | 534 kts | 113° |
| 2026-05-05 11:58 | 38.88968 | 56.70019 | 38782 ft | 534 kts | 113° |
| 2026-05-05 11:59 | 38.86490 | 56.78944 | 38785 ft | 533 kts | 113° |
| 2026-05-05 11:59 | 38.83995 | 56.87894 | 38783 ft | 533 kts | 113° |
| 2026-05-05 12:00 | 38.81489 | 56.96856 | 38784 ft | 532 kts | 113° |
| 2026-05-05 12:00 | 38.78981 | 57.05796 | 38782 ft | 532 kts | 113° |
| 2026-05-05 12:01 | 38.76469 | 57.14721 | 38780 ft | 532 kts | 113° |
| 2026-05-05 12:01 | 38.73952 | 57.23632 | 38779 ft | 532 kts | 113° |
| 2026-05-05 12:02 | 38.71442 | 57.32488 | 38777 ft | 532 kts | 113° |
| 2026-05-05 12:02 | 38.68913 | 57.41379 | 38776 ft | 532 kts | 113° |
| 2026-05-05 12:03 | 38.66368 | 57.50299 | 38770 ft | 533 kts | 113° |
| 2026-05-05 12:03 | 38.63816 | 57.59211 | 38769 ft | 533 kts | 113° |
| 2026-05-05 12:04 | 38.61259 | 57.68104 | 38764 ft | 532 kts | 113° |
| 2026-05-05 12:04 | 38.58367 | 57.76740 | 38765 ft | 531 kts | 118° |
| 2026-05-05 12:05 | 38.55241 | 57.85284 | 38764 ft | 531 kts | 118° |
| 2026-05-05 12:05 | 38.52150 | 57.93868 | 38766 ft | 532 kts | 117° |
| 2026-05-05 12:06 | 38.49106 | 58.02479 | 38762 ft | 532 kts | 117° |
| 2026-05-05 12:06 | 38.46061 | 58.11120 | 38763 ft | 533 kts | 117° |
| 2026-05-05 12:07 | 38.43017 | 58.19737 | 38760 ft | 533 kts | 117° |
| 2026-05-05 12:07 | 38.40099 | 58.28421 | 38761 ft | 535 kts | 110° |
| 2026-05-05 12:08 | 38.38099 | 58.37592 | 38759 ft | 537 kts | 106° |
| 2026-05-05 12:08 | 38.36283 | 58.46769 | 38756 ft | 537 kts | 105° |
| 2026-05-05 12:09 | 38.34459 | 58.56021 | 38758 ft | 536 kts | 106° |
| 2026-05-05 12:09 | 38.32618 | 58.65238 | 38755 ft | 536 kts | 106° |
| 2026-05-05 12:10 | 38.30776 | 58.74365 | 38759 ft | 535 kts | 106° |
| 2026-05-05 12:10 | 38.28914 | 58.83542 | 38759 ft | 535 kts | 106° |
| 2026-05-05 12:11 | 38.27046 | 58.92715 | 38764 ft | 535 kts | 106° |
| 2026-05-05 12:11 | 38.25170 | 59.01889 | 38761 ft | 535 kts | 106° |
| 2026-05-05 12:12 | 38.23285 | 59.11064 | 38765 ft | 535 kts | 106° |
| 2026-05-05 12:12 | 38.21394 | 59.20233 | 38758 ft | 535 kts | 106° |
| 2026-05-05 12:13 | 38.19501 | 59.29372 | 38761 ft | 536 kts | 106° |
| 2026-05-05 12:13 | 38.17594 | 59.38538 | 38761 ft | 536 kts | 106° |
| 2026-05-05 12:14 | 38.15682 | 59.47689 | 38763 ft | 536 kts | 106° |
| 2026-05-05 12:14 | 38.13770 | 59.56802 | 38763 ft | 536 kts | 106° |
| 2026-05-05 12:15 | 38.11840 | 59.65965 | 38763 ft | 536 kts | 106° |
| 2026-05-05 12:15 | 38.09906 | 59.75103 | 38766 ft | 536 kts | 106° |
| 2026-05-05 12:16 | 38.07959 | 59.84267 | 38769 ft | 536 kts | 106° |
| 2026-05-05 12:16 | 38.06010 | 59.93401 | 38772 ft | 536 kts | 106° |
| 2026-05-05 12:17 | 38.04068 | 60.02462 | 38772 ft | 536 kts | 107° |
| 2026-05-05 12:17 | 38.02102 | 60.11604 | 38773 ft | 536 kts | 107° |
| 2026-05-05 12:18 | 38.00131 | 60.20738 | 38779 ft | 536 kts | 106° |
| 2026-05-05 12:18 | 37.98153 | 60.29851 | 38779 ft | 537 kts | 107° |
| 2026-05-05 12:19 | 37.96156 | 60.38972 | 38785 ft | 537 kts | 107° |
| 2026-05-05 12:19 | 37.94155 | 60.48081 | 38785 ft | 537 kts | 107° |
| 2026-05-05 12:20 | 37.92146 | 60.57201 | 38789 ft | 537 kts | 107° |
| 2026-05-05 12:20 | 37.90134 | 60.66304 | 38795 ft | 537 kts | 107° |
| 2026-05-05 12:21 | 37.88113 | 60.75414 | 38791 ft | 537 kts | 107° |
| 2026-05-05 12:21 | 37.86085 | 60.84514 | 38808 ft | 537 kts | 107° |
| 2026-05-05 12:22 | 37.84053 | 60.93593 | 38806 ft | 536 kts | 107° |
| 2026-05-05 12:22 | 37.82014 | 61.02672 | 38812 ft | 536 kts | 107° |
| 2026-05-05 12:23 | 37.79967 | 61.11748 | 38809 ft | 536 kts | 107° |
| 2026-05-05 12:23 | 37.77932 | 61.20735 | 38815 ft | 536 kts | 107° |
| 2026-05-05 12:24 | 37.75871 | 61.29803 | 38817 ft | 536 kts | 107° |
| 2026-05-05 12:24 | 37.73806 | 61.38854 | 38825 ft | 536 kts | 107° |
| 2026-05-05 12:25 | 37.71731 | 61.47909 | 38824 ft | 536 kts | 107° |
| 2026-05-05 12:25 | 37.69654 | 61.56942 | 38836 ft | 536 kts | 107° |
| 2026-05-05 12:26 | 37.67581 | 61.65919 | 38849 ft | 536 kts | 107° |
| 2026-05-05 12:26 | 37.65487 | 61.74956 | 38853 ft | 536 kts | 107° |
| 2026-05-05 12:27 | 37.63381 | 61.83985 | 38857 ft | 536 kts | 107° |
| 2026-05-05 12:27 | 37.60225 | 61.92415 | 38860 ft | 531 kts | 127° |
| 2026-05-05 12:28 | 37.55932 | 62.00006 | 38859 ft | 530 kts | 129° |
| 2026-05-05 12:28 | 37.51515 | 62.07437 | 38848 ft | 531 kts | 129° |
| 2026-05-05 12:29 | 37.47081 | 62.14890 | 38855 ft | 531 kts | 129° |
| 2026-05-05 12:29 | 37.42692 | 62.22304 | 38850 ft | 532 kts | 129° |
| 2026-05-05 12:30 | 37.38251 | 62.29814 | 38853 ft | 532 kts | 129° |
| 2026-05-05 12:30 | 37.33851 | 62.37238 | 38854 ft | 532 kts | 129° |
| 2026-05-05 12:31 | 37.29425 | 62.44689 | 38855 ft | 532 kts | 129° |
| 2026-05-05 12:31 | 37.24978 | 62.52156 | 38854 ft | 533 kts | 129° |
| 2026-05-05 12:32 | 37.20536 | 62.59597 | 38856 ft | 534 kts | 129° |
| 2026-05-05 12:32 | 37.16825 | 62.65802 | 38863 ft | 534 kts | 129° |
| 2026-05-05 12:33 | 37.11636 | 62.74458 | 38867 ft | 535 kts | 129° |
| 2026-05-05 12:33 | 37.07881 | 62.80708 | 38868 ft | 535 kts | 129° |
| 2026-05-05 12:34 | 37.03393 | 62.88164 | 38865 ft | 536 kts | 129° |
| 2026-05-05 12:34 | 36.98929 | 62.95562 | 38871 ft | 537 kts | 129° |
| 2026-05-05 12:35 | 36.94416 | 63.03026 | 38878 ft | 538 kts | 129° |
| 2026-05-05 12:35 | 36.89895 | 63.10487 | 38881 ft | 538 kts | 129° |
| 2026-05-05 12:36 | 36.85368 | 63.17941 | 38882 ft | 539 kts | 129° |
| 2026-05-05 12:36 | 36.80835 | 63.25388 | 38884 ft | 539 kts | 129° |
| 2026-05-05 12:37 | 36.76291 | 63.32835 | 38889 ft | 540 kts | 129° |
| 2026-05-05 12:37 | 36.71738 | 63.40284 | 38890 ft | 540 kts | 130° |
| 2026-05-05 12:38 | 36.67198 | 63.47692 | 38896 ft | 541 kts | 130° |
| 2026-05-05 12:38 | 36.62629 | 63.55133 | 38902 ft | 541 kts | 130° |
| 2026-05-05 12:39 | 36.58049 | 63.62575 | 38905 ft | 542 kts | 130° |
| 2026-05-05 12:39 | 36.53455 | 63.70023 | 38906 ft | 542 kts | 130° |
| 2026-05-05 12:40 | 36.48846 | 63.77480 | 38907 ft | 543 kts | 130° |
| 2026-05-05 12:40 | 36.44264 | 63.84876 | 38905 ft | 543 kts | 130° |
| 2026-05-05 12:41 | 36.39621 | 63.92355 | 38911 ft | 544 kts | 130° |
| 2026-05-05 12:41 | 36.35025 | 63.99741 | 38912 ft | 544 kts | 130° |
| 2026-05-05 12:42 | 36.30384 | 64.07183 | 38910 ft | 545 kts | 130° |
| 2026-05-05 12:42 | 36.25749 | 64.14601 | 38910 ft | 545 kts | 130° |
| 2026-05-05 12:43 | 36.21099 | 64.22027 | 38913 ft | 546 kts | 130° |
| 2026-05-05 12:43 | 36.16435 | 64.29457 | 38912 ft | 546 kts | 130° |
| 2026-05-05 12:44 | 36.11869 | 64.36986 | 38912 ft | 547 kts | 128° |
| 2026-05-05 12:44 | 36.07438 | 64.44553 | 38918 ft | 547 kts | 128° |
| 2026-05-05 12:45 | 36.02938 | 64.52187 | 38917 ft | 548 kts | 128° |
| 2026-05-05 12:45 | 35.98414 | 64.59785 | 38943 ft | 548 kts | 128° |
| 2026-05-05 12:46 | 35.93873 | 64.67374 | 38957 ft | 549 kts | 128° |
| 2026-05-05 12:46 | 35.89329 | 64.74950 | 38957 ft | 549 kts | 128° |
| 2026-05-05 12:47 | 35.84782 | 64.82518 | 38991 ft | 550 kts | 128° |
| 2026-05-05 12:47 | 35.80214 | 64.90105 | 38993 ft | 551 kts | 128° |
| 2026-05-05 12:48 | 35.75634 | 64.97696 | 39026 ft | 552 kts | 128° |
| 2026-05-05 12:48 | 35.71078 | 65.05230 | 39039 ft | 552 kts | 128° |
| 2026-05-05 12:49 | 35.66491 | 65.12800 | 39053 ft | 552 kts | 129° |
| 2026-05-05 12:49 | 35.61887 | 65.20382 | 39065 ft | 553 kts | 129° |
| 2026-05-05 12:50 | 35.57277 | 65.27957 | 39080 ft | 554 kts | 129° |
| 2026-05-05 12:50 | 35.52662 | 65.35520 | 39090 ft | 554 kts | 129° |
| 2026-05-05 12:51 | 35.48024 | 65.43107 | 39098 ft | 555 kts | 129° |
| 2026-05-05 12:51 | 35.43405 | 65.50647 | 39108 ft | 556 kts | 129° |
| 2026-05-05 12:52 | 35.38755 | 65.58222 | 39112 ft | 556 kts | 129° |
| 2026-05-05 12:52 | 35.34101 | 65.65785 | 39116 ft | 556 kts | 129° |
| 2026-05-05 12:53 | 35.29429 | 65.73361 | 39124 ft | 557 kts | 129° |
| 2026-05-05 12:53 | 35.24743 | 65.80944 | 39129 ft | 557 kts | 129° |
| 2026-05-05 12:54 | 35.17744 | 65.92237 | 39133 ft | 559 kts | 129° |
| 2026-05-05 12:55 | 35.13038 | 65.99813 | 39131 ft | 560 kts | 129° |
| 2026-05-05 12:55 | 35.08325 | 66.07384 | 39127 ft | 560 kts | 129° |
| 2026-05-05 12:56 | 35.03598 | 66.14960 | 39120 ft | 561 kts | 129° |
| 2026-05-05 12:56 | 34.98860 | 66.22533 | 39113 ft | 561 kts | 129° |
| 2026-05-05 12:57 | 34.94115 | 66.30105 | 39109 ft | 562 kts | 129° |
| 2026-05-05 12:57 | 34.89326 | 66.37638 | 39104 ft | 563 kts | 130° |
| 2026-05-05 12:58 | 34.84508 | 66.45184 | 39100 ft | 564 kts | 130° |
| 2026-05-05 12:58 | 34.79732 | 66.52664 | 39091 ft | 563 kts | 130° |
| 2026-05-05 12:59 | 34.74919 | 66.60194 | 39093 ft | 564 kts | 130° |
| 2026-05-05 12:59 | 34.70089 | 66.67737 | 39088 ft | 566 kts | 130° |
| 2026-05-05 13:00 | 34.62823 | 66.79060 | 39079 ft | 566 kts | 130° |
| 2026-05-05 13:01 | 34.53123 | 66.94115 | 39060 ft | 567 kts | 130° |
| 2026-05-05 13:01 | 34.48275 | 67.01613 | 39053 ft | 567 kts | 130° |
| 2026-05-05 13:02 | 34.43396 | 67.09121 | 39052 ft | 567 kts | 130° |
| 2026-05-05 13:02 | 34.38509 | 67.16630 | 39048 ft | 569 kts | 130° |
| 2026-05-05 13:03 | 34.33599 | 67.24161 | 39042 ft | 569 kts | 130° |
| 2026-05-05 13:03 | 34.28686 | 67.31688 | 39040 ft | 569 kts | 130° |
| 2026-05-05 13:04 | 34.23783 | 67.39182 | 39035 ft | 568 kts | 130° |
| 2026-05-05 13:04 | 34.18864 | 67.46685 | 39032 ft | 569 kts | 130° |
| 2026-05-05 13:05 | 34.13966 | 67.54138 | 39040 ft | 569 kts | 130° |
| 2026-05-05 13:05 | 34.09034 | 67.61628 | 39045 ft | 570 kts | 130° |
| 2026-05-05 13:06 | 34.04089 | 67.69121 | 39038 ft | 570 kts | 130° |
| 2026-05-05 13:06 | 33.99146 | 67.76595 | 39038 ft | 571 kts | 130° |
| 2026-05-05 13:07 | 33.94187 | 67.84061 | 39031 ft | 570 kts | 131° |
| 2026-05-05 13:07 | 33.89176 | 67.91473 | 39027 ft | 571 kts | 131° |
| 2026-05-05 13:08 | 33.84137 | 67.98902 | 39016 ft | 572 kts | 131° |
| 2026-05-05 13:08 | 33.79099 | 68.06338 | 38995 ft | 573 kts | 131° |
| 2026-05-05 13:09 | 33.74078 | 68.13741 | 38988 ft | 575 kts | 131° |
| 2026-05-05 13:09 | 33.69007 | 68.21210 | 38967 ft | 576 kts | 131° |
| 2026-05-05 13:10 | 33.63963 | 68.28623 | 38940 ft | 576 kts | 131° |
| 2026-05-05 13:10 | 33.58883 | 68.36069 | 38917 ft | 576 kts | 131° |
| 2026-05-05 13:11 | 33.53799 | 68.43506 | 38901 ft | 576 kts | 131° |
| 2026-05-05 13:11 | 33.48631 | 68.50833 | 38892 ft | 576 kts | 133° |
| 2026-05-05 13:12 | 33.43395 | 68.58092 | 38889 ft | 576 kts | 133° |
| 2026-05-05 13:12 | 33.38153 | 68.65376 | 38886 ft | 577 kts | 132° |
| 2026-05-05 13:13 | 33.32922 | 68.72670 | 38888 ft | 578 kts | 132° |
| 2026-05-05 13:13 | 33.27715 | 68.79929 | 38896 ft | 579 kts | 132° |
| 2026-05-05 13:14 | 33.22662 | 68.87420 | 38904 ft | 580 kts | 128° |
| 2026-05-05 13:14 | 33.17825 | 68.95141 | 38914 ft | 580 kts | 128° |
| 2026-05-05 13:15 | 33.12958 | 69.02841 | 38923 ft | 580 kts | 128° |
| 2026-05-05 13:15 | 33.08043 | 69.10475 | 38941 ft | 580 kts | 129° |
| 2026-05-05 13:16 | 33.03130 | 69.18046 | 38961 ft | 580 kts | 129° |
| 2026-05-05 13:16 | 32.98188 | 69.25644 | 38971 ft | 580 kts | 129° |
| 2026-05-05 13:17 | 32.93240 | 69.33248 | 38979 ft | 581 kts | 129° |
| 2026-05-05 13:17 | 32.88292 | 69.40839 | 38986 ft | 580 kts | 129° |
| 2026-05-05 13:18 | 32.83345 | 69.48407 | 38985 ft | 578 kts | 129° |
| 2026-05-05 13:18 | 32.79231 | 69.54663 | 38998 ft | 578 kts | 129° |
| 2026-05-05 13:19 | 32.74270 | 69.62184 | 39000 ft | 578 kts | 129° |
| 2026-05-05 13:19 | 32.69304 | 69.69706 | 38999 ft | 578 kts | 129° |
| 2026-05-05 13:20 | 32.64334 | 69.77225 | 38985 ft | 579 kts | 129° |
| 2026-05-05 13:20 | 32.59335 | 69.84770 | 38982 ft | 581 kts | 129° |
| 2026-05-05 13:21 | 32.54339 | 69.92295 | 38963 ft | 581 kts | 129° |
| 2026-05-05 13:21 | 32.49360 | 69.99780 | 38948 ft | 582 kts | 129° |
| 2026-05-05 13:22 | 32.44341 | 70.07312 | 38922 ft | 583 kts | 129° |
| 2026-05-05 13:22 | 32.39305 | 70.14854 | 38905 ft | 584 kts | 129° |
| 2026-05-05 13:23 | 32.34280 | 70.22410 | 38885 ft | 584 kts | 128° |
| 2026-05-05 13:23 | 32.29379 | 70.30009 | 38871 ft | 583 kts | 128° |
| 2026-05-05 13:24 | 32.24482 | 70.37632 | 38852 ft | 583 kts | 128° |
| 2026-05-05 13:24 | 32.19557 | 70.45244 | 38848 ft | 582 kts | 128° |
| 2026-05-05 13:25 | 32.14622 | 70.52829 | 38846 ft | 582 kts | 128° |
| 2026-05-05 13:25 | 32.09689 | 70.60394 | 38837 ft | 581 kts | 128° |
| 2026-05-05 13:26 | 32.04753 | 70.67949 | 38831 ft | 581 kts | 128° |
| 2026-05-05 13:26 | 31.99817 | 70.75493 | 38837 ft | 580 kts | 128° |
| 2026-05-05 13:27 | 31.94907 | 70.82982 | 38833 ft | 580 kts | 128° |
| 2026-05-05 13:27 | 31.90307 | 70.90764 | 38837 ft | 579 kts | 118° |
| 2026-05-05 13:28 | 31.86462 | 70.99078 | 38837 ft | 579 kts | 117° |
| 2026-05-05 13:28 | 31.82716 | 71.07473 | 38836 ft | 578 kts | 116° |
| 2026-05-05 13:29 | 31.78995 | 71.15800 | 38837 ft | 578 kts | 116° |
| 2026-05-05 13:29 | 31.75228 | 71.24159 | 38842 ft | 578 kts | 117° |
| 2026-05-05 13:30 | 31.71450 | 71.32501 | 38839 ft | 578 kts | 117° |
| 2026-05-05 13:30 | 31.67665 | 71.40837 | 38840 ft | 578 kts | 117° |
| 2026-05-05 13:31 | 31.63877 | 71.49165 | 38842 ft | 578 kts | 117° |
| 2026-05-05 13:31 | 31.60090 | 71.57474 | 38842 ft | 577 kts | 117° |
| 2026-05-05 13:32 | 31.56298 | 71.65779 | 38841 ft | 577 kts | 117° |
| 2026-05-05 13:32 | 31.52501 | 71.74061 | 38843 ft | 577 kts | 117° |
| 2026-05-05 13:33 | 31.48692 | 71.82347 | 38839 ft | 577 kts | 117° |
| 2026-05-05 13:33 | 31.44885 | 71.90614 | 38836 ft | 576 kts | 117° |
| 2026-05-05 13:34 | 31.41102 | 71.98813 | 38857 ft | 576 kts | 117° |
| 2026-05-05 13:34 | 31.37290 | 72.07057 | 38842 ft | 576 kts | 117° |
| 2026-05-05 13:35 | 31.33473 | 72.15294 | 38845 ft | 575 kts | 117° |
| 2026-05-05 13:35 | 31.29692 | 72.23526 | 38837 ft | 574 kts | 114° |
| 2026-05-05 13:36 | 31.28248 | 72.27869 | 38847 ft | 570 kts | 103° |
| 2026-05-05 13:36 | 31.27491 | 72.32380 | 38860 ft | 562 kts | 90° |
| 2026-05-05 13:36 | 31.27468 | 72.36916 | 38867 ft | 552 kts | 78° |
| 2026-05-05 13:36 | 31.27856 | 72.41367 | 38854 ft | 550 kts | 77° |
| 2026-05-05 13:37 | 31.28875 | 72.50246 | 38853 ft | 550 kts | 76° |
| 2026-05-05 13:37 | 31.29930 | 72.59101 | 38855 ft | 550 kts | 76° |
| 2026-05-05 13:38 | 31.30935 | 72.67922 | 38866 ft | 550 kts | 76° |
| 2026-05-05 13:38 | 31.31918 | 72.76820 | 38870 ft | 550 kts | 77° |
| 2026-05-05 13:39 | 31.32888 | 72.85698 | 38882 ft | 550 kts | 77° |
| 2026-05-05 13:39 | 31.33849 | 72.94540 | 38887 ft | 550 kts | 77° |
| 2026-05-05 13:40 | 31.34810 | 73.03408 | 38883 ft | 550 kts | 77° |
| 2026-05-05 13:40 | 31.35767 | 73.12309 | 38883 ft | 550 kts | 77° |
| 2026-05-05 13:41 | 31.36713 | 73.21174 | 38876 ft | 550 kts | 77° |
| 2026-05-05 13:41 | 31.37654 | 73.30055 | 38866 ft | 550 kts | 77° |
| 2026-05-05 13:42 | 31.38591 | 73.38948 | 38857 ft | 549 kts | 77° |
| 2026-05-05 13:42 | 31.39515 | 73.47769 | 38851 ft | 549 kts | 77° |
| 2026-05-05 13:43 | 31.40440 | 73.56666 | 38852 ft | 549 kts | 78° |
| 2026-05-05 13:43 | 31.41355 | 73.65528 | 38851 ft | 549 kts | 78° |
| 2026-05-05 13:44 | 31.42266 | 73.74410 | 38850 ft | 548 kts | 78° |
| 2026-05-05 13:44 | 31.43162 | 73.83223 | 38854 ft | 548 kts | 78° |
| 2026-05-05 13:45 | 31.44055 | 73.92093 | 38853 ft | 548 kts | 78° |
| 2026-05-05 13:45 | 31.44676 | 74.00991 | 38848 ft | 554 kts | 88° |
| 2026-05-05 13:46 | 31.43521 | 74.09962 | 38858 ft | 558 kts | 99° |
| 2026-05-05 13:46 | 31.41851 | 74.18859 | 38868 ft | 559 kts | 100° |
| 2026-05-05 13:47 | 31.40129 | 74.27737 | 38875 ft | 559 kts | 100° |
| 2026-05-05 13:47 | 31.38441 | 74.36558 | 38876 ft | 558 kts | 100° |
| 2026-05-05 13:48 | 31.36761 | 74.45418 | 38875 ft | 558 kts | 100° |
| 2026-05-05 13:48 | 31.35076 | 74.54291 | 38870 ft | 558 kts | 100° |
| 2026-05-05 13:49 | 31.33247 | 74.63114 | 38857 ft | 558 kts | 104° |
| 2026-05-05 13:49 | 31.31015 | 74.71768 | 38847 ft | 558 kts | 105° |
| 2026-05-05 13:50 | 31.28748 | 74.80444 | 38846 ft | 558 kts | 105° |
| 2026-05-05 13:50 | 31.26546 | 74.89135 | 38846 ft | 557 kts | 104° |
| 2026-05-05 13:51 | 31.24372 | 74.97834 | 38846 ft | 557 kts | 104° |
| 2026-05-05 13:51 | 31.22194 | 75.06536 | 38843 ft | 557 kts | 105° |
| 2026-05-05 13:52 | 31.20015 | 75.15202 | 38839 ft | 557 kts | 105° |
| 2026-05-05 13:52 | 31.17821 | 75.23887 | 38839 ft | 556 kts | 105° |
| 2026-05-05 13:53 | 31.15627 | 75.32547 | 38840 ft | 556 kts | 105° |
| 2026-05-05 13:53 | 31.13442 | 75.41147 | 38841 ft | 556 kts | 105° |
| 2026-05-05 13:54 | 31.11235 | 75.49796 | 38838 ft | 555 kts | 105° |
| 2026-05-05 13:54 | 31.08579 | 75.58263 | 38842 ft | 556 kts | 111° |
| 2026-05-05 13:55 | 31.05630 | 75.66601 | 38847 ft | 556 kts | 112° |
| 2026-05-05 13:55 | 31.02735 | 75.74977 | 38851 ft | 556 kts | 111° |
| 2026-05-05 13:56 | 30.99930 | 75.83309 | 38848 ft | 555 kts | 111° |
| 2026-05-05 13:56 | 30.97124 | 75.91696 | 38847 ft | 555 kts | 111° |
| 2026-05-05 13:57 | 30.94310 | 76.00080 | 38852 ft | 555 kts | 111° |
| 2026-05-05 13:57 | 30.91484 | 76.08463 | 38851 ft | 555 kts | 111° |
| 2026-05-05 13:58 | 30.88656 | 76.16828 | 38853 ft | 555 kts | 111° |
| 2026-05-05 13:58 | 30.85826 | 76.25181 | 38859 ft | 555 kts | 111° |
| 2026-05-05 13:59 | 30.81561 | 76.37727 | 38857 ft | 555 kts | 111° |
| 2026-05-05 14:00 | 30.77791 | 76.48780 | 38881 ft | 554 kts | 111° |
| 2026-05-05 14:00 | 30.74468 | 76.58492 | 38898 ft | 554 kts | 111° |
| 2026-05-05 14:01 | 30.71612 | 76.66818 | 38911 ft | 553 kts | 111° |
| 2026-05-05 14:01 | 30.68659 | 76.75086 | 38909 ft | 554 kts | 118° |
| 2026-05-05 14:02 | 30.66668 | 76.78913 | 39065 ft | 552 kts | 127° |
| 2026-05-05 14:02 | 30.64471 | 76.82497 | 39250 ft | 552 kts | 128° |
| 2026-05-05 14:02 | 30.62187 | 76.86068 | 39420 ft | 551 kts | 129° |
| 2026-05-05 14:02 | 30.59864 | 76.89624 | 39589 ft | 551 kts | 129° |
| 2026-05-05 14:03 | 30.57532 | 76.93162 | 39760 ft | 551 kts | 129° |
| 2026-05-05 14:03 | 30.55199 | 76.96699 | 39943 ft | 550 kts | 129° |
| 2026-05-05 14:03 | 30.52873 | 77.00231 | 40127 ft | 550 kts | 129° |
| 2026-05-05 14:03 | 30.50557 | 77.03757 | 40278 ft | 550 kts | 129° |
| 2026-05-05 14:04 | 30.48240 | 77.07289 | 40432 ft | 550 kts | 129° |
| 2026-05-05 14:04 | 30.45925 | 77.10821 | 40575 ft | 550 kts | 129° |
| 2026-05-05 14:04 | 30.43613 | 77.14347 | 40734 ft | 549 kts | 129° |
| 2026-05-05 14:04 | 30.41124 | 77.17694 | 40848 ft | 546 kts | 139° |
| 2026-05-05 14:05 | 30.35062 | 77.22786 | 40873 ft | 534 kts | 156° |
| 2026-05-05 14:05 | 30.28477 | 77.26743 | 40876 ft | 533 kts | 159° |
| 2026-05-05 14:06 | 30.21855 | 77.30518 | 40871 ft | 533 kts | 159° |
| 2026-05-05 14:06 | 30.15212 | 77.34329 | 40874 ft | 534 kts | 159° |
| 2026-05-05 14:07 | 30.08560 | 77.38183 | 40873 ft | 534 kts | 158° |
| 2026-05-05 14:07 | 30.01914 | 77.42045 | 40874 ft | 535 kts | 159° |
| 2026-05-05 14:08 | 29.95620 | 77.46733 | 40873 ft | 542 kts | 147° |
| 2026-05-05 14:08 | 29.90618 | 77.51148 | 40876 ft | 544 kts | 146° |
| 2026-05-05 14:09 | 29.84665 | 77.56539 | 40873 ft | 545 kts | 146° |
| 2026-05-05 14:09 | 29.78689 | 77.61936 | 40884 ft | 545 kts | 146° |
| 2026-05-05 14:10 | 29.72736 | 77.67274 | 40879 ft | 545 kts | 146° |
| 2026-05-05 14:10 | 29.66747 | 77.72624 | 40875 ft | 545 kts | 146° |
| 2026-05-05 14:11 | 29.60756 | 77.77966 | 40873 ft | 544 kts | 146° |
| 2026-05-05 14:11 | 29.54769 | 77.83297 | 40869 ft | 544 kts | 147° |
| 2026-05-05 14:12 | 29.48792 | 77.88611 | 40874 ft | 543 kts | 147° |
| 2026-05-05 14:12 | 29.42812 | 77.93920 | 40872 ft | 543 kts | 147° |
| 2026-05-05 14:13 | 29.36827 | 77.99225 | 40869 ft | 543 kts | 147° |
| 2026-05-05 14:13 | 29.30895 | 78.04476 | 40865 ft | 542 kts | 147° |
| 2026-05-05 14:14 | 29.24918 | 78.09757 | 40859 ft | 542 kts | 147° |
| 2026-05-05 14:14 | 29.18941 | 78.15032 | 40874 ft | 542 kts | 147° |
| 2026-05-05 14:15 | 29.12954 | 78.20307 | 40869 ft | 542 kts | 147° |
| 2026-05-05 14:15 | 29.06981 | 78.25562 | 40866 ft | 541 kts | 147° |
| 2026-05-05 14:16 | 29.01010 | 78.30807 | 40868 ft | 541 kts | 147° |
| 2026-05-05 14:16 | 28.95083 | 78.36005 | 40861 ft | 541 kts | 147° |
| 2026-05-05 14:17 | 28.89101 | 78.41245 | 40860 ft | 540 kts | 147° |
| 2026-05-05 14:17 | 28.83133 | 78.46464 | 40864 ft | 540 kts | 147° |
| 2026-05-05 14:18 | 28.77166 | 78.51676 | 40863 ft | 540 kts | 147° |
| 2026-05-05 14:18 | 28.71195 | 78.56881 | 40859 ft | 540 kts | 147° |
| 2026-05-05 14:19 | 28.65228 | 78.62076 | 40858 ft | 540 kts | 147° |
| 2026-05-05 14:19 | 28.59288 | 78.67240 | 40858 ft | 540 kts | 147° |
| 2026-05-05 14:20 | 28.53284 | 78.72452 | 40853 ft | 540 kts | 147° |
| 2026-05-05 14:20 | 28.47379 | 78.77640 | 40847 ft | 542 kts | 143° |
| 2026-05-05 14:21 | 28.41899 | 78.83578 | 40849 ft | 544 kts | 139° |
| 2026-05-05 14:21 | 28.36546 | 78.89684 | 40848 ft | 545 kts | 139° |
| 2026-05-05 14:22 | 28.31219 | 78.95795 | 40845 ft | 544 kts | 139° |
| 2026-05-05 14:22 | 28.25875 | 79.01895 | 40840 ft | 544 kts | 139° |
| 2026-05-05 14:23 | 28.20565 | 79.07929 | 40845 ft | 543 kts | 139° |
| 2026-05-05 14:23 | 28.15210 | 79.14001 | 40840 ft | 543 kts | 139° |
| 2026-05-05 14:24 | 28.09873 | 79.20045 | 40838 ft | 543 kts | 139° |
| 2026-05-05 14:24 | 28.04527 | 79.26090 | 40837 ft | 543 kts | 139° |
| 2026-05-05 14:25 | 27.99176 | 79.32132 | 40838 ft | 542 kts | 139° |
| 2026-05-05 14:25 | 27.93831 | 79.38158 | 40834 ft | 542 kts | 139° |
| 2026-05-05 14:26 | 27.88522 | 79.44135 | 40834 ft | 542 kts | 139° |
| 2026-05-05 14:26 | 27.83175 | 79.50147 | 40835 ft | 542 kts | 140° |
| 2026-05-05 14:27 | 27.77826 | 79.56152 | 40839 ft | 542 kts | 140° |
| 2026-05-05 14:27 | 27.72475 | 79.62150 | 40834 ft | 542 kts | 140° |
| 2026-05-05 14:28 | 27.67323 | 79.68397 | 40848 ft | 545 kts | 135° |
| 2026-05-05 14:28 | 27.62420 | 79.74910 | 40844 ft | 545 kts | 134° |
| 2026-05-05 14:29 | 27.57542 | 79.81470 | 40843 ft | 545 kts | 134° |
| 2026-05-05 14:29 | 27.52672 | 79.88004 | 40846 ft | 544 kts | 134° |
| 2026-05-05 14:30 | 27.47816 | 79.94493 | 40843 ft | 544 kts | 134° |
| 2026-05-05 14:30 | 27.42931 | 80.01005 | 40841 ft | 543 kts | 134° |
| 2026-05-05 14:31 | 27.38050 | 80.07500 | 40842 ft | 543 kts | 134° |
| 2026-05-05 14:31 | 27.33175 | 80.13979 | 40845 ft | 542 kts | 134° |
| 2026-05-05 14:32 | 27.28326 | 80.20413 | 40847 ft | 541 kts | 134° |
| 2026-05-05 14:32 | 27.23456 | 80.26867 | 40844 ft | 541 kts | 134° |
| 2026-05-05 14:33 | 27.18585 | 80.33312 | 40846 ft | 541 kts | 134° |
| 2026-05-05 14:33 | 27.13712 | 80.39750 | 40851 ft | 540 kts | 134° |
| 2026-05-05 14:34 | 27.08842 | 80.46175 | 40849 ft | 540 kts | 134° |
| 2026-05-05 14:34 | 27.03967 | 80.52596 | 40846 ft | 540 kts | 134° |
| 2026-05-05 14:35 | 26.99090 | 80.59012 | 40859 ft | 540 kts | 134° |
| 2026-05-05 14:35 | 26.94212 | 80.65418 | 40847 ft | 540 kts | 134° |
| 2026-05-05 14:36 | 26.89339 | 80.71809 | 40851 ft | 539 kts | 134° |
| 2026-05-05 14:36 | 26.84489 | 80.78162 | 40859 ft | 539 kts | 134° |
| 2026-05-05 14:37 | 26.79603 | 80.84552 | 40863 ft | 539 kts | 134° |
| 2026-05-05 14:37 | 26.74738 | 80.90923 | 40851 ft | 539 kts | 133° |
| 2026-05-05 14:38 | 26.70225 | 80.97669 | 40856 ft | 541 kts | 128° |
| 2026-05-05 14:38 | 26.65907 | 81.04569 | 40854 ft | 541 kts | 128° |
| 2026-05-05 14:39 | 26.61543 | 81.11415 | 40853 ft | 540 kts | 129° |
| 2026-05-05 14:39 | 26.57123 | 81.18212 | 40848 ft | 539 kts | 129° |
| 2026-05-05 14:40 | 26.52716 | 81.24940 | 40850 ft | 539 kts | 130° |
| 2026-05-05 14:40 | 26.48283 | 81.31696 | 40846 ft | 538 kts | 129° |
| 2026-05-05 14:41 | 26.43857 | 81.38438 | 40845 ft | 538 kts | 130° |
| 2026-05-05 14:41 | 26.39424 | 81.45182 | 40847 ft | 537 kts | 130° |
| 2026-05-05 14:42 | 26.35032 | 81.51857 | 40844 ft | 537 kts | 130° |
| 2026-05-05 14:42 | 26.30608 | 81.58568 | 40844 ft | 536 kts | 130° |
| 2026-05-05 14:43 | 26.26181 | 81.65276 | 40846 ft | 536 kts | 130° |
| 2026-05-05 14:43 | 26.21761 | 81.71963 | 40841 ft | 536 kts | 130° |
| 2026-05-05 14:44 | 26.17364 | 81.78606 | 40844 ft | 535 kts | 130° |
| 2026-05-05 14:44 | 26.12937 | 81.85283 | 40835 ft | 535 kts | 130° |
| 2026-05-05 14:45 | 26.08512 | 81.91948 | 40840 ft | 535 kts | 130° |
| 2026-05-05 14:45 | 26.04088 | 81.98601 | 40838 ft | 534 kts | 130° |
| 2026-05-05 14:46 | 25.99669 | 82.05237 | 40835 ft | 534 kts | 130° |
| 2026-05-05 14:46 | 25.95278 | 82.11823 | 40836 ft | 533 kts | 130° |
| 2026-05-05 14:47 | 25.90856 | 82.18445 | 40833 ft | 533 kts | 130° |
| 2026-05-05 14:47 | 25.86441 | 82.25048 | 40834 ft | 532 kts | 130° |
| 2026-05-05 14:48 | 25.82026 | 82.31640 | 40827 ft | 532 kts | 130° |
| 2026-05-05 14:48 | 25.77609 | 82.38227 | 40832 ft | 532 kts | 130° |
| 2026-05-05 14:49 | 25.73188 | 82.44809 | 40830 ft | 531 kts | 130° |
| 2026-05-05 14:49 | 25.68771 | 82.51378 | 40831 ft | 531 kts | 130° |
| 2026-05-05 14:50 | 25.64348 | 82.57945 | 40824 ft | 531 kts | 130° |
| 2026-05-05 14:50 | 25.59946 | 82.64472 | 40817 ft | 531 kts | 130° |
| 2026-05-05 14:51 | 25.55513 | 82.71037 | 40810 ft | 531 kts | 130° |
| 2026-05-05 14:51 | 25.51087 | 82.77582 | 40799 ft | 530 kts | 130° |
| 2026-05-05 14:52 | 25.46714 | 82.84173 | 40804 ft | 533 kts | 126° |
| 2026-05-05 14:52 | 25.43499 | 82.91599 | 40801 ft | 538 kts | 114° |
| 2026-05-05 14:53 | 25.40874 | 82.99329 | 40806 ft | 539 kts | 112° |
| 2026-05-05 14:53 | 25.38327 | 83.07102 | 40817 ft | 540 kts | 112° |
| 2026-05-05 14:54 | 25.35746 | 83.14903 | 40831 ft | 540 kts | 112° |
| 2026-05-05 14:54 | 25.33580 | 83.21376 | 40837 ft | 540 kts | 113° |
| 2026-05-05 14:55 | 25.30954 | 83.29185 | 40844 ft | 541 kts | 113° |
| 2026-05-05 14:55 | 25.28327 | 83.36977 | 40845 ft | 541 kts | 113° |
| 2026-05-05 14:56 | 25.25702 | 83.44751 | 40849 ft | 541 kts | 113° |
| 2026-05-05 14:56 | 25.23067 | 83.52542 | 40849 ft | 541 kts | 113° |
| 2026-05-05 14:57 | 25.20432 | 83.60318 | 40855 ft | 541 kts | 113° |
| 2026-05-05 14:57 | 25.17789 | 83.68101 | 40856 ft | 541 kts | 113° |
| 2026-05-05 14:58 | 25.15140 | 83.75886 | 40858 ft | 541 kts | 113° |
| 2026-05-05 14:58 | 25.12504 | 83.83618 | 40855 ft | 541 kts | 113° |
| 2026-05-05 14:59 | 25.09846 | 83.91397 | 40863 ft | 541 kts | 113° |
| 2026-05-05 14:59 | 25.07188 | 83.99165 | 40859 ft | 541 kts | 114° |
| 2026-05-05 15:00 | 25.04970 | 84.05633 | 40865 ft | 542 kts | 114° |
| 2026-05-05 15:00 | 25.01851 | 84.14711 | 40868 ft | 542 kts | 114° |
| 2026-05-05 15:01 | 24.99176 | 84.22482 | 40866 ft | 542 kts | 114° |
| 2026-05-05 15:01 | 24.96493 | 84.30261 | 40865 ft | 542 kts | 114° |
| 2026-05-05 15:02 | 24.93826 | 84.37978 | 40867 ft | 542 kts | 114° |
| 2026-05-05 15:02 | 24.91136 | 84.45747 | 40875 ft | 543 kts | 114° |
| 2026-05-05 15:03 | 24.88439 | 84.53520 | 40878 ft | 543 kts | 114° |
| 2026-05-05 15:03 | 24.85735 | 84.61300 | 40869 ft | 543 kts | 114° |
| 2026-05-05 15:04 | 24.83041 | 84.69036 | 40857 ft | 543 kts | 114° |
| 2026-05-05 15:04 | 24.80328 | 84.76808 | 40844 ft | 544 kts | 114° |
| 2026-05-05 15:05 | 24.76251 | 84.88465 | 40830 ft | 544 kts | 114° |
| 2026-05-05 15:06 | 24.73068 | 84.95991 | 40846 ft | 538 kts | 126° |
| 2026-05-05 15:06 | 24.69031 | 85.02838 | 40826 ft | 537 kts | 128° |
| 2026-05-05 15:07 | 24.64820 | 85.09633 | 40840 ft | 537 kts | 128° |
| 2026-05-05 15:07 | 24.60604 | 85.16405 | 40871 ft | 537 kts | 128° |
| 2026-05-05 15:08 | 24.56404 | 85.23180 | 40894 ft | 537 kts | 128° |
| 2026-05-05 15:08 | 24.52206 | 85.29965 | 40912 ft | 536 kts | 128° |
| 2026-05-05 15:09 | 24.48033 | 85.36704 | 40907 ft | 536 kts | 128° |
| 2026-05-05 15:09 | 24.43834 | 85.43475 | 40909 ft | 536 kts | 128° |
| 2026-05-05 15:10 | 24.39630 | 85.50243 | 40916 ft | 536 kts | 128° |
| 2026-05-05 15:10 | 24.35428 | 85.56999 | 40920 ft | 536 kts | 128° |
| 2026-05-05 15:11 | 24.31246 | 85.63712 | 40917 ft | 535 kts | 128° |
| 2026-05-05 15:11 | 24.27050 | 85.70439 | 40924 ft | 535 kts | 128° |
| 2026-05-05 15:12 | 24.22842 | 85.77177 | 40928 ft | 535 kts | 128° |
| 2026-05-05 15:12 | 24.18635 | 85.83902 | 40924 ft | 534 kts | 128° |
| 2026-05-05 15:13 | 24.14423 | 85.90626 | 40928 ft | 535 kts | 128° |
| 2026-05-05 15:13 | 24.10219 | 85.97330 | 40926 ft | 535 kts | 128° |
| 2026-05-05 15:14 | 24.05999 | 86.04050 | 40928 ft | 535 kts | 128° |
| 2026-05-05 15:14 | 24.01807 | 86.10716 | 40920 ft | 535 kts | 128° |
| 2026-05-05 15:15 | 23.97569 | 86.17447 | 40917 ft | 535 kts | 128° |
| 2026-05-05 15:15 | 23.93369 | 86.24108 | 40926 ft | 535 kts | 128° |
| 2026-05-05 15:16 | 23.89146 | 86.30797 | 40926 ft | 534 kts | 128° |
| 2026-05-05 15:16 | 23.84927 | 86.37471 | 40917 ft | 533 kts | 128° |
| 2026-05-05 15:17 | 23.80716 | 86.44125 | 40912 ft | 532 kts | 128° |
| 2026-05-05 15:17 | 23.76747 | 86.50994 | 40909 ft | 534 kts | 124° |
| 2026-05-05 15:18 | 23.72991 | 86.57987 | 40908 ft | 533 kts | 123° |
| 2026-05-05 15:18 | 23.69213 | 86.64937 | 40915 ft | 532 kts | 124° |
| 2026-05-05 15:19 | 23.65414 | 86.71801 | 40892 ft | 531 kts | 124° |
| 2026-05-05 15:19 | 23.61572 | 86.78690 | 40882 ft | 530 kts | 124° |
| 2026-05-05 15:20 | 23.57731 | 86.85566 | 40890 ft | 530 kts | 124° |
| 2026-05-05 15:20 | 23.53896 | 86.92426 | 40888 ft | 530 kts | 124° |
| 2026-05-05 15:21 | 23.50082 | 86.99243 | 40887 ft | 529 kts | 124° |
| 2026-05-05 15:21 | 23.46253 | 87.06088 | 40877 ft | 528 kts | 124° |
| 2026-05-05 15:22 | 23.42428 | 87.12928 | 40875 ft | 528 kts | 124° |
| 2026-05-05 15:22 | 23.38597 | 87.19766 | 40873 ft | 528 kts | 124° |
| 2026-05-05 15:23 | 23.34775 | 87.26578 | 40872 ft | 527 kts | 124° |
| 2026-05-05 15:23 | 23.30973 | 87.33348 | 40869 ft | 527 kts | 124° |
| 2026-05-05 15:24 | 23.27147 | 87.40149 | 40868 ft | 527 kts | 124° |
| 2026-05-05 15:24 | 23.23320 | 87.46946 | 40868 ft | 527 kts | 124° |
| 2026-05-05 15:25 | 23.19488 | 87.53740 | 40861 ft | 526 kts | 124° |
| 2026-05-05 15:25 | 23.15659 | 87.60522 | 40862 ft | 526 kts | 124° |
| 2026-05-05 15:26 | 23.11831 | 87.67292 | 40866 ft | 525 kts | 124° |
| 2026-05-05 15:26 | 23.08028 | 87.74008 | 40861 ft | 525 kts | 124° |
| 2026-05-05 15:27 | 23.04188 | 87.80782 | 40861 ft | 525 kts | 124° |
| 2026-05-05 15:27 | 23.00355 | 87.87534 | 40861 ft | 524 kts | 124° |
| 2026-05-05 15:28 | 22.96526 | 87.94270 | 40862 ft | 524 kts | 124° |
| 2026-05-05 15:28 | 22.92715 | 88.00966 | 40860 ft | 524 kts | 124° |
| 2026-05-05 15:29 | 22.88887 | 88.07683 | 40862 ft | 524 kts | 124° |
| 2026-05-05 15:29 | 22.85053 | 88.14402 | 40859 ft | 523 kts | 124° |
| 2026-05-05 15:30 | 22.81217 | 88.21115 | 40861 ft | 523 kts | 124° |
| 2026-05-05 15:30 | 22.77375 | 88.27830 | 40859 ft | 523 kts | 124° |
| 2026-05-05 15:31 | 22.73542 | 88.34522 | 40856 ft | 522 kts | 124° |
| 2026-05-05 15:31 | 22.69709 | 88.41204 | 40857 ft | 522 kts | 124° |
| 2026-05-05 15:32 | 22.65865 | 88.47813 | 40856 ft | 521 kts | 127° |
| 2026-05-05 15:32 | 22.61658 | 88.54197 | 40855 ft | 519 kts | 129° |
| 2026-05-05 15:33 | 22.57368 | 88.60500 | 40858 ft | 519 kts | 129° |
| 2026-05-05 15:33 | 22.53130 | 88.66831 | 40862 ft | 519 kts | 129° |
| 2026-05-05 15:34 | 22.48951 | 88.73144 | 40864 ft | 519 kts | 128° |
| 2026-05-05 15:34 | 22.44751 | 88.79504 | 40868 ft | 519 kts | 128° |
| 2026-05-05 15:35 | 22.40550 | 88.85857 | 40870 ft | 518 kts | 128° |
| 2026-05-05 15:35 | 22.36349 | 88.92196 | 40871 ft | 518 kts | 128° |
| 2026-05-05 15:36 | 22.32173 | 88.98488 | 40871 ft | 518 kts | 128° |
| 2026-05-05 15:36 | 22.28009 | 89.04837 | 40875 ft | 518 kts | 127° |
| 2026-05-05 15:37 | 22.24035 | 89.11323 | 40872 ft | 518 kts | 126° |
| 2026-05-05 15:37 | 22.20083 | 89.17843 | 40875 ft | 518 kts | 126° |
| 2026-05-05 15:38 | 22.16134 | 89.24286 | 40874 ft | 517 kts | 126° |
| 2026-05-05 15:38 | 22.12145 | 89.30743 | 40878 ft | 517 kts | 126° |
| 2026-05-05 15:39 | 22.08146 | 89.37200 | 40877 ft | 517 kts | 126° |
| 2026-05-05 15:39 | 22.04152 | 89.43643 | 40878 ft | 517 kts | 126° |
| 2026-05-05 15:40 | 22.00155 | 89.50086 | 40878 ft | 516 kts | 126° |
| 2026-05-05 15:40 | 21.96160 | 89.56517 | 40878 ft | 516 kts | 126° |
| 2026-05-05 15:41 | 21.92836 | 89.61863 | 40881 ft | 516 kts | 126° |
| 2026-05-05 15:41 | 21.88839 | 89.68285 | 40881 ft | 516 kts | 126° |
| 2026-05-05 15:42 | 21.84839 | 89.74703 | 40879 ft | 516 kts | 126° |
| 2026-05-05 15:42 | 21.80867 | 89.81070 | 40884 ft | 515 kts | 126° |
| 2026-05-05 15:43 | 21.76861 | 89.87484 | 40882 ft | 515 kts | 126° |
| 2026-05-05 15:43 | 21.72855 | 89.93890 | 40885 ft | 515 kts | 126° |
| 2026-05-05 15:44 | 21.68872 | 90.00251 | 40883 ft | 515 kts | 127° |
| 2026-05-05 15:44 | 21.64903 | 90.06584 | 40883 ft | 515 kts | 126° |
| 2026-05-05 15:45 | 21.60860 | 90.13027 | 40882 ft | 514 kts | 126° |
| 2026-05-05 15:45 | 21.56853 | 90.19404 | 40886 ft | 514 kts | 126° |
| 2026-05-05 15:46 | 21.52846 | 90.25775 | 40887 ft | 514 kts | 127° |
| 2026-05-05 15:46 | 21.48865 | 90.32095 | 40887 ft | 514 kts | 127° |
| 2026-05-05 15:47 | 21.44854 | 90.38458 | 40890 ft | 513 kts | 127° |
| 2026-05-05 15:47 | 21.41071 | 90.44452 | 40889 ft | 513 kts | 127° |
| 2026-05-05 15:48 | 21.37648 | 90.49870 | 40891 ft | 513 kts | 127° |
| 2026-05-05 15:48 | 21.33630 | 90.56225 | 40893 ft | 513 kts | 126° |
| 2026-05-05 15:49 | 21.29628 | 90.62553 | 40892 ft | 513 kts | 127° |
| 2026-05-05 15:49 | 21.25613 | 90.68893 | 40896 ft | 513 kts | 127° |
| 2026-05-05 15:50 | 21.21627 | 90.75180 | 40894 ft | 512 kts | 127° |
| 2026-05-05 15:50 | 21.17621 | 90.81492 | 40896 ft | 512 kts | 127° |
| 2026-05-05 15:51 | 21.13611 | 90.87804 | 40892 ft | 512 kts | 127° |
| 2026-05-05 15:51 | 21.09667 | 90.94003 | 40905 ft | 512 kts | 127° |
| 2026-05-05 15:52 | 21.05681 | 91.00263 | 40903 ft | 512 kts | 127° |
| 2026-05-05 15:52 | 21.01691 | 91.06521 | 40889 ft | 512 kts | 127° |
| 2026-05-05 15:53 | 20.97668 | 91.12826 | 40892 ft | 512 kts | 127° |
| 2026-05-05 15:53 | 20.93647 | 91.19118 | 40905 ft | 511 kts | 127° |
| 2026-05-05 15:54 | 20.89652 | 91.25365 | 40900 ft | 511 kts | 127° |
| 2026-05-05 15:54 | 20.85630 | 91.31646 | 40890 ft | 511 kts | 127° |
| 2026-05-05 15:55 | 20.81602 | 91.37929 | 40892 ft | 511 kts | 127° |
| 2026-05-05 15:55 | 20.77605 | 91.44158 | 40889 ft | 511 kts | 127° |
| 2026-05-05 15:56 | 20.73576 | 91.50428 | 40897 ft | 511 kts | 127° |
| 2026-05-05 15:56 | 20.69556 | 91.56679 | 40901 ft | 511 kts | 127° |
| 2026-05-05 15:57 | 20.65525 | 91.62941 | 40905 ft | 510 kts | 127° |
| 2026-05-05 15:57 | 20.61499 | 91.69187 | 40900 ft | 510 kts | 127° |
| 2026-05-05 15:58 | 20.57496 | 91.75391 | 40894 ft | 510 kts | 127° |
| 2026-05-05 15:58 | 20.53463 | 91.81634 | 40895 ft | 510 kts | 127° |
| 2026-05-05 15:59 | 20.49439 | 91.87857 | 40894 ft | 510 kts | 127° |
| 2026-05-05 15:59 | 20.45502 | 91.93939 | 40895 ft | 510 kts | 127° |
| 2026-05-05 16:00 | 20.41466 | 92.00168 | 40897 ft | 510 kts | 127° |
| 2026-05-05 16:00 | 20.37425 | 92.06342 | 40896 ft | 510 kts | 127° |
| 2026-05-05 16:01 | 20.33427 | 92.12371 | 40898 ft | 509 kts | 127° |
| 2026-05-05 16:01 | 20.29340 | 92.18534 | 40904 ft | 510 kts | 127° |
| 2026-05-05 16:02 | 20.25258 | 92.24701 | 40902 ft | 509 kts | 127° |
| 2026-05-05 16:02 | 20.21168 | 92.30877 | 40904 ft | 510 kts | 127° |
| 2026-05-05 16:03 | 20.17073 | 92.37057 | 40909 ft | 510 kts | 127° |
| 2026-05-05 16:03 | 20.12982 | 92.43223 | 40903 ft | 510 kts | 127° |
| 2026-05-05 16:04 | 20.08914 | 92.49348 | 40902 ft | 510 kts | 127° |
| 2026-05-05 16:04 | 20.04819 | 92.55508 | 40906 ft | 510 kts | 127° |
| 2026-05-05 16:05 | 20.00718 | 92.61669 | 40900 ft | 510 kts | 127° |
| 2026-05-05 16:05 | 19.96621 | 92.67817 | 40900 ft | 509 kts | 127° |
| 2026-05-05 16:06 | 19.92515 | 92.73973 | 40901 ft | 509 kts | 127° |
| 2026-05-05 16:06 | 19.88440 | 92.80077 | 40898 ft | 509 kts | 127° |
| 2026-05-05 16:07 | 19.84313 | 92.86252 | 40905 ft | 509 kts | 127° |
| 2026-05-05 16:07 | 19.80240 | 92.92341 | 40903 ft | 509 kts | 127° |
| 2026-05-05 16:08 | 19.76140 | 92.98462 | 40901 ft | 508 kts | 127° |
| 2026-05-05 16:08 | 19.72035 | 93.04586 | 40903 ft | 508 kts | 127° |
| 2026-05-05 16:09 | 19.67929 | 93.10704 | 40904 ft | 508 kts | 127° |
| 2026-05-05 16:09 | 19.63847 | 93.16780 | 40901 ft | 507 kts | 127° |
| 2026-05-05 16:10 | 19.59746 | 93.22878 | 40903 ft | 507 kts | 127° |
| 2026-05-05 16:10 | 19.55660 | 93.28948 | 40905 ft | 507 kts | 127° |
| 2026-05-05 16:11 | 19.51560 | 93.35033 | 40907 ft | 507 kts | 127° |
| 2026-05-05 16:12 | 19.43356 | 93.47190 | 40906 ft | 506 kts | 127° |
| 2026-05-05 16:13 | 19.33111 | 93.62339 | 40904 ft | 506 kts | 127° |
| 2026-05-05 16:13 | 19.29010 | 93.68393 | 40904 ft | 506 kts | 127° |
| 2026-05-05 16:14 | 19.20794 | 93.80501 | 40906 ft | 506 kts | 127° |
| 2026-05-05 16:15 | 19.12579 | 93.92585 | 40909 ft | 506 kts | 127° |
| 2026-05-05 16:16 | 19.04381 | 94.04619 | 40910 ft | 505 kts | 127° |
| 2026-05-05 16:17 | 18.98215 | 94.13656 | 40913 ft | 505 kts | 127° |
| 2026-05-05 16:18 | 18.92049 | 94.22680 | 40921 ft | 504 kts | 127° |
| 2026-05-05 16:19 | 18.85889 | 94.31683 | 40922 ft | 504 kts | 127° |
| 2026-05-05 16:19 | 18.79747 | 94.40645 | 40927 ft | 504 kts | 127° |
| 2026-05-05 16:20 | 18.71512 | 94.52641 | 40927 ft | 504 kts | 127° |
| 2026-05-05 16:22 | 18.61235 | 94.67581 | 40921 ft | 504 kts | 127° |
| 2026-05-05 16:23 | 18.53103 | 94.79616 | 40916 ft | 504 kts | 126° |
| 2026-05-05 16:23 | 18.47164 | 94.88757 | 40909 ft | 503 kts | 126° |
| 2026-05-05 16:24 | 18.43211 | 94.94791 | 40902 ft | 503 kts | 126° |
| 2026-05-05 16:25 | 18.37226 | 95.03879 | 40895 ft | 503 kts | 126° |
| 2026-05-05 16:25 | 18.31263 | 95.12921 | 40890 ft | 503 kts | 126° |
| 2026-05-05 16:26 | 18.23015 | 95.24800 | 40876 ft | 501 kts | 128° |
| 2026-05-05 16:27 | 18.18797 | 95.30651 | 40868 ft | 501 kts | 128° |
| 2026-05-05 16:27 | 18.14632 | 95.36482 | 40865 ft | 501 kts | 128° |
| 2026-05-05 16:28 | 18.10447 | 95.42368 | 40876 ft | 501 kts | 128° |
| 2026-05-05 16:28 | 18.06970 | 95.47259 | 40868 ft | 501 kts | 128° |
| 2026-05-05 16:29 | 18.02794 | 95.53126 | 40883 ft | 501 kts | 128° |
| 2026-05-05 16:29 | 17.98648 | 95.58945 | 40868 ft | 501 kts | 128° |
| 2026-05-05 16:30 | 17.94465 | 95.64809 | 40865 ft | 501 kts | 128° |
| 2026-05-05 16:30 | 17.90288 | 95.70660 | 40888 ft | 500 kts | 128° |
| 2026-05-05 16:31 | 17.86111 | 95.76506 | 40886 ft | 500 kts | 128° |
| 2026-05-05 16:31 | 17.81947 | 95.82328 | 40887 ft | 500 kts | 128° |
| 2026-05-05 16:32 | 17.77756 | 95.88183 | 40875 ft | 500 kts | 128° |
| 2026-05-05 16:32 | 17.73597 | 95.93988 | 40875 ft | 500 kts | 128° |
| 2026-05-05 16:33 | 17.69405 | 95.99833 | 40890 ft | 500 kts | 128° |
| 2026-05-05 16:33 | 17.65220 | 96.05665 | 40895 ft | 500 kts | 128° |
| 2026-05-05 16:34 | 17.61034 | 96.11491 | 40892 ft | 500 kts | 128° |
| 2026-05-05 16:34 | 17.56880 | 96.17270 | 40879 ft | 500 kts | 128° |
| 2026-05-05 16:35 | 17.52684 | 96.23100 | 40887 ft | 500 kts | 128° |
| 2026-05-05 16:35 | 17.48495 | 96.28917 | 40884 ft | 499 kts | 128° |
| 2026-05-05 16:36 | 17.44329 | 96.34696 | 40884 ft | 500 kts | 128° |
| 2026-05-05 16:36 | 17.40136 | 96.40508 | 40871 ft | 499 kts | 128° |
| 2026-05-05 16:37 | 17.35943 | 96.46315 | 40886 ft | 499 kts | 128° |
| 2026-05-05 16:37 | 17.31743 | 96.52127 | 40884 ft | 499 kts | 128° |
| 2026-05-05 16:38 | 17.27551 | 96.57865 | 40889 ft | 499 kts | 128° |
| 2026-05-05 16:38 | 17.23282 | 96.63611 | 40886 ft | 500 kts | 128° |
| 2026-05-05 16:39 | 17.19017 | 96.69355 | 40887 ft | 500 kts | 128° |
| 2026-05-05 16:39 | 17.14751 | 96.75114 | 40887 ft | 500 kts | 128° |
| 2026-05-05 16:40 | 17.10489 | 96.80870 | 40886 ft | 501 kts | 128° |
| 2026-05-05 16:40 | 17.06230 | 96.86618 | 40884 ft | 500 kts | 128° |
| 2026-05-05 16:41 | 17.01962 | 96.92371 | 40886 ft | 500 kts | 128° |
| 2026-05-05 16:41 | 16.97726 | 96.98077 | 40885 ft | 500 kts | 128° |
| 2026-05-05 16:42 | 16.93462 | 97.03816 | 40885 ft | 500 kts | 128° |
| 2026-05-05 16:42 | 16.89298 | 97.09415 | 40891 ft | 500 kts | 128° |
| 2026-05-05 16:43 | 16.85117 | 97.15032 | 40891 ft | 499 kts | 128° |
| 2026-05-05 16:43 | 16.80878 | 97.20723 | 40891 ft | 499 kts | 128° |
| 2026-05-05 16:44 | 16.76615 | 97.26442 | 40888 ft | 499 kts | 128° |
| 2026-05-05 16:44 | 16.72342 | 97.32170 | 40892 ft | 499 kts | 128° |
| 2026-05-05 16:45 | 16.68071 | 97.37889 | 40893 ft | 498 kts | 128° |
| 2026-05-05 16:45 | 16.63839 | 97.43553 | 40896 ft | 498 kts | 128° |
| 2026-05-05 16:46 | 16.59575 | 97.49253 | 40896 ft | 498 kts | 128° |
| 2026-05-05 16:46 | 16.55311 | 97.54950 | 40896 ft | 497 kts | 128° |
| 2026-05-05 16:47 | 16.51054 | 97.60633 | 40908 ft | 497 kts | 128° |
| 2026-05-05 16:47 | 16.46817 | 97.66283 | 40887 ft | 496 kts | 128° |
| 2026-05-05 16:48 | 16.42572 | 97.71943 | 40887 ft | 496 kts | 128° |
| 2026-05-05 16:48 | 16.38307 | 97.77613 | 40902 ft | 496 kts | 129° |
| 2026-05-05 16:49 | 16.33441 | 97.82674 | 40900 ft | 495 kts | 138° |
| 2026-05-05 16:49 | 16.28242 | 97.87404 | 40906 ft | 495 kts | 140° |
| 2026-05-05 16:50 | 16.23053 | 97.92036 | 40913 ft | 494 kts | 140° |
| 2026-05-05 16:50 | 16.17835 | 97.96705 | 40912 ft | 494 kts | 139° |
| 2026-05-05 16:51 | 16.12625 | 98.01382 | 40911 ft | 494 kts | 139° |
| 2026-05-05 16:51 | 16.07421 | 98.06056 | 40911 ft | 494 kts | 139° |
| 2026-05-05 16:52 | 16.02252 | 98.10697 | 40921 ft | 493 kts | 139° |
| 2026-05-05 16:52 | 15.97061 | 98.15352 | 40921 ft | 493 kts | 139° |
| 2026-05-05 16:53 | 15.91865 | 98.20009 | 40930 ft | 493 kts | 139° |
| 2026-05-05 16:53 | 15.86674 | 98.24658 | 40939 ft | 492 kts | 139° |
| 2026-05-05 16:54 | 15.81489 | 98.29298 | 40927 ft | 492 kts | 139° |
| 2026-05-05 16:54 | 15.76291 | 98.33945 | 40945 ft | 492 kts | 139° |
| 2026-05-05 16:55 | 15.71129 | 98.38559 | 40951 ft | 492 kts | 139° |
| 2026-05-05 16:55 | 15.65938 | 98.43195 | 40957 ft | 492 kts | 139° |
| 2026-05-05 16:56 | 15.60737 | 98.47836 | 40962 ft | 493 kts | 139° |
| 2026-05-05 16:56 | 15.55537 | 98.52473 | 40955 ft | 493 kts | 139° |
| 2026-05-05 16:57 | 15.50357 | 98.57091 | 40963 ft | 494 kts | 140° |
| 2026-05-05 16:57 | 15.45621 | 98.62245 | 40966 ft | 494 kts | 130° |
| 2026-05-05 16:58 | 15.41256 | 98.67750 | 40972 ft | 494 kts | 129° |
| 2026-05-05 16:58 | 15.36939 | 98.73307 | 40992 ft | 495 kts | 129° |
| 2026-05-05 16:59 | 15.32611 | 98.78862 | 40978 ft | 495 kts | 129° |
| 2026-05-05 16:59 | 15.28272 | 98.84406 | 40976 ft | 496 kts | 129° |
| 2026-05-05 17:00 | 15.23981 | 98.89875 | 40976 ft | 496 kts | 129° |
| 2026-05-05 17:00 | 15.19624 | 98.95424 | 40975 ft | 496 kts | 129° |
| 2026-05-05 17:01 | 15.15276 | 99.00959 | 40577 ft | 491 kts | 129° |
| 2026-05-05 17:01 | 15.13111 | 99.03713 | 39841 ft | 494 kts | 129° |
| 2026-05-05 17:01 | 15.10961 | 99.06448 | 39113 ft | 497 kts | 129° |
| 2026-05-05 17:02 | 15.08771 | 99.09232 | 38331 ft | 500 kts | 129° |
| 2026-05-05 17:02 | 15.06559 | 99.12043 | 37487 ft | 503 kts | 129° |
| 2026-05-05 17:02 | 15.04342 | 99.14859 | 36660 ft | 505 kts | 129° |
| 2026-05-05 17:02 | 15.02140 | 99.17655 | 35692 ft | 494 kts | 129° |
| 2026-05-05 17:03 | 14.99999 | 99.20372 | 34951 ft | 485 kts | 129° |
| 2026-05-05 17:03 | 14.97874 | 99.23069 | 34431 ft | 483 kts | 129° |
| 2026-05-05 17:03 | 14.95750 | 99.25764 | 33902 ft | 482 kts | 129° |
| 2026-05-05 17:03 | 14.93637 | 99.28444 | 33336 ft | 480 kts | 129° |
| 2026-05-05 17:04 | 14.91533 | 99.31112 | 32817 ft | 477 kts | 129° |
| 2026-05-05 17:04 | 14.89465 | 99.33734 | 32303 ft | 474 kts | 129° |
| 2026-05-05 17:04 | 14.87385 | 99.36369 | 31799 ft | 471 kts | 129° |
| 2026-05-05 17:04 | 14.85322 | 99.38983 | 31283 ft | 468 kts | 129° |
| 2026-05-05 17:05 | 14.83264 | 99.41594 | 30767 ft | 466 kts | 129° |
| 2026-05-05 17:05 | 14.81214 | 99.44186 | 30258 ft | 464 kts | 129° |
| 2026-05-05 17:05 | 14.79179 | 99.46759 | 29731 ft | 462 kts | 129° |
| 2026-05-05 17:05 | 14.77153 | 99.49320 | 29190 ft | 458 kts | 129° |
| 2026-05-05 17:06 | 14.75165 | 99.51833 | 28693 ft | 454 kts | 129° |
| 2026-05-05 17:06 | 14.73174 | 99.54350 | 28201 ft | 451 kts | 129° |
| 2026-05-05 17:06 | 14.71198 | 99.56848 | 27707 ft | 447 kts | 129° |
| 2026-05-05 17:06 | 14.69236 | 99.59326 | 27211 ft | 444 kts | 129° |
| 2026-05-05 17:07 | 14.67290 | 99.61784 | 26719 ft | 441 kts | 129° |
| 2026-05-05 17:07 | 14.65358 | 99.64222 | 26231 ft | 438 kts | 129° |
| 2026-05-05 17:07 | 14.63436 | 99.66648 | 25741 ft | 435 kts | 129° |
| 2026-05-05 17:07 | 14.61522 | 99.69063 | 25245 ft | 432 kts | 129° |
| 2026-05-05 17:08 | 14.59619 | 99.71464 | 24744 ft | 430 kts | 129° |
| 2026-05-05 17:08 | 14.57730 | 99.73845 | 24249 ft | 428 kts | 129° |
| 2026-05-05 17:08 | 14.55850 | 99.76216 | 23756 ft | 426 kts | 129° |
| 2026-05-05 17:08 | 14.53977 | 99.78576 | 23215 ft | 424 kts | 129° |
| 2026-05-05 17:09 | 14.52112 | 99.80925 | 22685 ft | 420 kts | 129° |
| 2026-05-05 17:09 | 14.50274 | 99.83241 | 22172 ft | 416 kts | 129° |
| 2026-05-05 17:09 | 14.48446 | 99.85543 | 21684 ft | 412 kts | 129° |
| 2026-05-05 17:09 | 14.46640 | 99.87816 | 21176 ft | 408 kts | 129° |
| 2026-05-05 17:10 | 14.44912 | 99.90113 | 20684 ft | 404 kts | 123° |
| 2026-05-05 17:10 | 14.43742 | 99.92724 | 20194 ft | 399 kts | 106° |
| 2026-05-05 17:10 | 14.43022 | 99.95482 | 19705 ft | 396 kts | 103° |
| 2026-05-05 17:10 | 14.42361 | 99.98234 | 19220 ft | 392 kts | 103° |
| 2026-05-05 17:11 | 14.41724 | 100.00857 | 18822 ft | 376 kts | 104° |
| 2026-05-05 17:11 | 14.41085 | 100.03461 | 18391 ft | 375 kts | 104° |
| 2026-05-05 17:11 | 14.40442 | 100.06064 | 17874 ft | 375 kts | 104° |
| 2026-05-05 17:11 | 14.39803 | 100.08653 | 17576 ft | 371 kts | 104° |
| 2026-05-05 17:12 | 14.39160 | 100.11237 | 17317 ft | 372 kts | 104° |
| 2026-05-05 17:12 | 14.38513 | 100.13824 | 17042 ft | 371 kts | 104° |
| 2026-05-05 17:12 | 14.37871 | 100.16394 | 16771 ft | 369 kts | 104° |
| 2026-05-05 17:12 | 14.37233 | 100.18945 | 16493 ft | 367 kts | 104° |
| 2026-05-05 17:13 | 14.36600 | 100.21494 | 16208 ft | 365 kts | 104° |
| 2026-05-05 17:13 | 14.35965 | 100.24032 | 15954 ft | 363 kts | 104° |
| 2026-05-05 17:13 | 14.35340 | 100.26522 | 15684 ft | 362 kts | 104° |
| 2026-05-05 17:13 | 14.34710 | 100.29031 | 15418 ft | 360 kts | 104° |
| 2026-05-05 17:14 | 14.34085 | 100.31527 | 15154 ft | 358 kts | 104° |
| 2026-05-05 17:14 | 14.33462 | 100.34010 | 14877 ft | 357 kts | 104° |
| 2026-05-05 17:14 | 14.32841 | 100.36476 | 14634 ft | 355 kts | 104° |
| 2026-05-05 17:14 | 14.32226 | 100.38930 | 14403 ft | 352 kts | 104° |
| 2026-05-05 17:15 | 14.31620 | 100.41345 | 14223 ft | 341 kts | 104° |
| 2026-05-05 17:15 | 14.31036 | 100.43674 | 14043 ft | 330 kts | 104° |
| 2026-05-05 17:15 | 14.30474 | 100.45912 | 13821 ft | 311 kts | 104° |
| 2026-05-05 17:15 | 14.29937 | 100.48056 | 13564 ft | 311 kts | 104° |
| 2026-05-05 17:16 | 14.29397 | 100.50221 | 13216 ft | 310 kts | 104° |
| 2026-05-05 17:16 | 14.28856 | 100.52362 | 12964 ft | 308 kts | 104° |
| 2026-05-05 17:16 | 14.28325 | 100.54467 | 12742 ft | 307 kts | 104° |
| 2026-05-05 17:16 | 14.27782 | 100.56621 | 12489 ft | 306 kts | 104° |
| 2026-05-05 17:17 | 14.27257 | 100.58706 | 12261 ft | 304 kts | 104° |
| 2026-05-05 17:17 | 14.26725 | 100.60816 | 12018 ft | 303 kts | 104° |
| 2026-05-05 17:17 | 14.26166 | 100.62910 | 11764 ft | 302 kts | 108° |
| 2026-05-05 17:17 | 14.25178 | 100.64801 | 11519 ft | 301 kts | 130° |
| 2026-05-05 17:18 | 14.23528 | 100.66103 | 11289 ft | 301 kts | 155° |
| 2026-05-05 17:18 | 14.21498 | 100.66572 | 11053 ft | 301 kts | 179° |
| 2026-05-05 17:18 | 14.19459 | 100.66133 | 10821 ft | 302 kts | 204° |
| 2026-05-05 17:18 | 14.18199 | 100.65517 | 10667 ft | 302 kts | 204° |
| 2026-05-05 17:19 | 14.16224 | 100.64799 | 10439 ft | 301 kts | 194° |
| 2026-05-05 17:19 | 14.14202 | 100.64240 | 10200 ft | 299 kts | 193° |
| 2026-05-05 17:19 | 14.11534 | 100.63535 | 9892 ft | 298 kts | 193° |
| 2026-05-05 17:19 | 14.09542 | 100.63010 | 9746 ft | 290 kts | 193° |
| 2026-05-05 17:20 | 14.08236 | 100.62666 | 9657 ft | 282 kts | 193° |
| 2026-05-05 17:20 | 14.06368 | 100.62174 | 9518 ft | 272 kts | 193° |
| 2026-05-05 17:20 | 14.04561 | 100.61699 | 9299 ft | 266 kts | 193° |
| 2026-05-05 17:20 | 14.02804 | 100.61250 | 9046 ft | 261 kts | 191° |
| 2026-05-05 17:21 | 14.01019 | 100.61197 | 8968 ft | 256 kts | 167° |
| 2026-05-05 17:21 | 13.99453 | 100.62011 | 8951 ft | 254 kts | 137° |
| 2026-05-05 17:21 | 13.98479 | 100.63511 | 8710 ft | 253 kts | 109° |
| 2026-05-05 17:22 | 13.97571 | 100.67017 | 8074 ft | 252 kts | 104° |
| 2026-05-05 17:22 | 13.97164 | 100.68758 | 7812 ft | 250 kts | 101° |
| 2026-05-05 17:22 | 13.97188 | 100.70536 | 7562 ft | 250 kts | 74° |
| 2026-05-05 17:22 | 13.98084 | 100.72028 | 7395 ft | 243 kts | 42° |
| 2026-05-05 17:23 | 13.99542 | 100.72834 | 7237 ft | 235 kts | 17° |
| 2026-05-05 17:23 | 14.01062 | 100.73245 | 7036 ft | 222 kts | 14° |
| 2026-05-05 17:23 | 14.02471 | 100.73781 | 6786 ft | 212 kts | 32° |
| 2026-05-05 17:23 | 14.03476 | 100.74853 | 6610 ft | 207 kts | 62° |
| 2026-05-05 17:24 | 14.03823 | 100.76256 | 6381 ft | 201 kts | 91° |
| 2026-05-05 17:24 | 14.03591 | 100.77678 | 6187 ft | 205 kts | 105° |
| 2026-05-05 17:24 | 14.03210 | 100.79089 | 6018 ft | 203 kts | 106° |
| 2026-05-05 17:24 | 14.02707 | 100.80433 | 5753 ft | 200 kts | 120° |
| 2026-05-05 17:25 | 14.01700 | 100.81419 | 5522 ft | 206 kts | 156° |
| 2026-05-05 17:25 | 14.00780 | 100.81611 | 5488 ft | 204 kts | 177° |
| 2026-05-05 17:25 | 13.98971 | 100.81428 | 5315 ft | 191 kts | 191° |
| 2026-05-05 17:25 | 13.97681 | 100.81129 | 5082 ft | 188 kts | 193° |
| 2026-05-05 17:26 | 13.96413 | 100.80807 | 4850 ft | 184 kts | 193° |
| 2026-05-05 17:26 | 13.95204 | 100.80486 | 4717 ft | 175 kts | 194° |
| 2026-05-05 17:26 | 13.94044 | 100.80180 | 4512 ft | 170 kts | 193° |
| 2026-05-05 17:26 | 13.92904 | 100.79881 | 4286 ft | 168 kts | 193° |
| 2026-05-05 17:27 | 13.91805 | 100.79596 | 4126 ft | 158 kts | 193° |
| 2026-05-05 17:27 | 13.90750 | 100.79321 | 3872 ft | 154 kts | 193° |
| 2026-05-05 17:27 | 13.89742 | 100.79058 | 3641 ft | 148 kts | 193° |
| 2026-05-05 17:27 | 13.88774 | 100.78804 | 3491 ft | 139 kts | 194° |
| 2026-05-05 17:28 | 13.87830 | 100.78555 | 3494 ft | 141 kts | 194° |
| 2026-05-05 17:28 | 13.86862 | 100.78299 | 3394 ft | 145 kts | 194° |
| 2026-05-05 17:28 | 13.85888 | 100.78040 | 3197 ft | 144 kts | 194° |
| 2026-05-05 17:28 | 13.84923 | 100.77785 | 2997 ft | 142 kts | 194° |
| 2026-05-05 17:29 | 13.83965 | 100.77532 | 2807 ft | 141 kts | 194° |
| 2026-05-05 17:29 | 13.83014 | 100.77280 | 2632 ft | 141 kts | 194° |
| 2026-05-05 17:29 | 13.82071 | 100.77031 | 2427 ft | 140 kts | 194° |
| 2026-05-05 17:29 | 13.81134 | 100.76783 | 2252 ft | 139 kts | 194° |
| 2026-05-05 17:30 | 13.80202 | 100.76537 | 2063 ft | 138 kts | 194° |
| 2026-05-05 17:30 | 13.79272 | 100.76291 | 1883 ft | 137 kts | 194° |
| 2026-05-05 17:30 | 13.78360 | 100.76050 | 1693 ft | 137 kts | 194° |
| 2026-05-05 17:30 | 13.77440 | 100.75806 | 1517 ft | 136 kts | 194° |
| 2026-05-05 17:31 | 13.76524 | 100.75564 | 1340 ft | 136 kts | 194° |
| 2026-05-05 17:31 | 13.75602 | 100.75320 | 1158 ft | 137 kts | 194° |
| 2026-05-05 17:31 | 13.74679 | 100.75076 | 981 ft | 137 kts | 195° |
| 2026-05-05 17:31 | 13.73734 | 100.74826 | 1150 ft | 150 kts | 195° |
| 2026-05-05 17:32 | 13.72648 | 100.74539 | 2077 ft | 167 kts | 194° |
| 2026-05-05 17:32 | 13.71533 | 100.74244 | 2665 ft | 165 kts | 194° |
| 2026-05-05 17:32 | 13.70388 | 100.73943 | 2942 ft | 182 kts | 194° |
| 2026-05-05 17:32 | 13.69060 | 100.73602 | 2981 ft | 211 kts | 193° |
| 2026-05-05 17:33 | 13.67579 | 100.73216 | 2932 ft | 224 kts | 194° |
| 2026-05-05 17:33 | 13.66151 | 100.72562 | 2990 ft | 225 kts | 216° |
| 2026-05-05 17:33 | 13.64991 | 100.71493 | 2993 ft | 223 kts | 225° |
| 2026-05-05 17:33 | 13.63915 | 100.70377 | 3073 ft | 223 kts | 224° |
| 2026-05-05 17:34 | 13.62789 | 100.69221 | 3261 ft | 237 kts | 224° |
| 2026-05-05 17:34 | 13.61604 | 100.68019 | 3441 ft | 235 kts | 224° |
| 2026-05-05 17:34 | 13.60464 | 100.66868 | 3497 ft | 226 kts | 224° |
| 2026-05-05 17:34 | 13.59341 | 100.65737 | 3504 ft | 224 kts | 224° |
| 2026-05-05 17:35 | 13.58218 | 100.64610 | 3493 ft | 225 kts | 224° |
| 2026-05-05 17:35 | 13.57097 | 100.63487 | 3495 ft | 225 kts | 223° |
| 2026-05-05 17:35 | 13.55964 | 100.62397 | 3492 ft | 225 kts | 219° |
| 2026-05-05 17:35 | 13.54595 | 100.61651 | 3495 ft | 224 kts | 193° |
| 2026-05-05 17:36 | 13.53062 | 100.61412 | 3496 ft | 223 kts | 180° |
| 2026-05-05 17:36 | 13.51551 | 100.61718 | 3498 ft | 223 kts | 156° |
| 2026-05-05 17:36 | 13.50293 | 100.62623 | 3492 ft | 223 kts | 133° |
| 2026-05-05 17:36 | 13.49486 | 100.63986 | 3498 ft | 224 kts | 113° |
| 2026-05-05 17:37 | 13.48982 | 100.65484 | 3496 ft | 225 kts | 107° |
| 2026-05-05 17:37 | 13.48596 | 100.67050 | 3501 ft | 226 kts | 103° |
| 2026-05-05 17:37 | 13.48260 | 100.68629 | 3499 ft | 226 kts | 103° |
| 2026-05-05 17:37 | 13.47931 | 100.70203 | 3496 ft | 226 kts | 103° |
| 2026-05-05 17:38 | 13.47586 | 100.71777 | 3496 ft | 226 kts | 104° |
| 2026-05-05 17:38 | 13.47221 | 100.73350 | 3496 ft | 226 kts | 104° |
| 2026-05-05 17:38 | 13.46842 | 100.74917 | 3496 ft | 226 kts | 104° |
| 2026-05-05 17:38 | 13.46452 | 100.76485 | 3497 ft | 226 kts | 105° |
| 2026-05-05 17:39 | 13.46064 | 100.78028 | 3498 ft | 226 kts | 105° |
| 2026-05-05 17:39 | 13.45670 | 100.79590 | 3498 ft | 226 kts | 105° |
| 2026-05-05 17:39 | 13.45275 | 100.81156 | 3496 ft | 226 kts | 105° |
| 2026-05-05 17:39 | 13.44881 | 100.82719 | 3495 ft | 226 kts | 105° |
| 2026-05-05 17:40 | 13.44488 | 100.84283 | 3495 ft | 226 kts | 105° |
| 2026-05-05 17:40 | 13.44104 | 100.85846 | 3496 ft | 226 kts | 103° |
| 2026-05-05 17:40 | 13.43957 | 100.87449 | 3493 ft | 227 kts | 88° |
| 2026-05-05 17:40 | 13.44268 | 100.89031 | 3494 ft | 227 kts | 69° |
| 2026-05-05 17:41 | 13.45089 | 100.90407 | 3497 ft | 227 kts | 47° |
| 2026-05-05 17:41 | 13.46349 | 100.91377 | 3501 ft | 228 kts | 26° |
| 2026-05-05 17:41 | 13.47858 | 100.91871 | 3498 ft | 228 kts | 15° |
| 2026-05-05 17:41 | 13.49291 | 100.92252 | 3494 ft | 229 kts | 13° |
| 2026-05-05 17:42 | 13.50846 | 100.92606 | 3497 ft | 229 kts | 12° |
| 2026-05-05 17:42 | 13.52389 | 100.92946 | 3691 ft | 226 kts | 12° |
| 2026-05-05 17:42 | 13.53870 | 100.93285 | 4110 ft | 230 kts | 13° |
| 2026-05-05 17:42 | 13.55446 | 100.93668 | 4682 ft | 238 kts | 14° |
| 2026-05-05 17:43 | 13.57121 | 100.94094 | 4936 ft | 259 kts | 14° |
| 2026-05-05 17:43 | 13.58930 | 100.94570 | 4980 ft | 274 kts | 15° |
| 2026-05-05 17:43 | 13.60789 | 100.95066 | 4984 ft | 277 kts | 15° |
| 2026-05-05 17:43 | 13.62655 | 100.95568 | 4993 ft | 277 kts | 15° |
| 2026-05-05 17:44 | 13.64512 | 100.96067 | 4991 ft | 276 kts | 15° |
| 2026-05-05 17:44 | 13.66375 | 100.96566 | 5001 ft | 276 kts | 15° |
| 2026-05-05 17:44 | 13.68234 | 100.97064 | 5002 ft | 276 kts | 15° |
| 2026-05-05 17:44 | 13.70071 | 100.97554 | 4998 ft | 276 kts | 15° |
| 2026-05-05 17:45 | 13.71937 | 100.98052 | 5000 ft | 276 kts | 15° |
| 2026-05-05 17:45 | 13.73796 | 100.98554 | 5001 ft | 276 kts | 15° |
| 2026-05-05 17:45 | 13.75655 | 100.99054 | 4999 ft | 276 kts | 15° |
| 2026-05-05 17:45 | 13.77519 | 100.99550 | 4996 ft | 276 kts | 15° |
| 2026-05-05 17:46 | 13.79379 | 101.00043 | 4986 ft | 276 kts | 15° |
| 2026-05-05 17:46 | 13.81235 | 101.00536 | 5001 ft | 276 kts | 15° |
| 2026-05-05 17:46 | 13.83091 | 101.01029 | 4990 ft | 273 kts | 15° |
| 2026-05-05 17:46 | 13.84874 | 101.01504 | 5002 ft | 255 kts | 15° |
| 2026-05-05 17:47 | 13.86549 | 101.01940 | 5001 ft | 243 kts | 13° |
| 2026-05-05 17:47 | 13.88217 | 101.01867 | 4658 ft | 245 kts | 339° |
| 2026-05-05 17:47 | 13.89520 | 101.00811 | 4324 ft | 244 kts | 303° |
| 2026-05-05 17:47 | 13.90159 | 100.99217 | 4149 ft | 241 kts | 283° |
| 2026-05-05 17:48 | 13.90434 | 100.97517 | 3983 ft | 241 kts | 276° |
| 2026-05-05 17:48 | 13.90606 | 100.95805 | 3810 ft | 241 kts | 275° |
| 2026-05-05 17:48 | 13.90805 | 100.94096 | 3651 ft | 240 kts | 277° |
| 2026-05-05 17:48 | 13.91076 | 100.92403 | 3459 ft | 239 kts | 280° |
| 2026-05-05 17:49 | 13.91416 | 100.90728 | 3309 ft | 239 kts | 282° |
| 2026-05-05 17:49 | 13.91805 | 100.89065 | 3144 ft | 238 kts | 283° |
| 2026-05-05 17:49 | 13.92202 | 100.87491 | 2991 ft | 238 kts | 284° |
| 2026-05-05 17:49 | 13.92628 | 100.85854 | 2816 ft | 237 kts | 284° |
| 2026-05-05 17:50 | 13.92974 | 100.84209 | 2629 ft | 232 kts | 271° |
| 2026-05-05 17:50 | 13.92522 | 100.82725 | 2512 ft | 217 kts | 230° |
| 2026-05-05 17:50 | 13.91336 | 100.81914 | 2507 ft | 199 kts | 198° |
| 2026-05-05 17:50 | 13.90007 | 100.81587 | 2505 ft | 192 kts | 191° |
| 2026-05-05 17:51 | 13.88719 | 100.81282 | 2505 ft | 193 kts | 194° |
| 2026-05-05 17:51 | 13.87417 | 100.80942 | 2504 ft | 194 kts | 194° |
| 2026-05-05 17:51 | 13.86135 | 100.80597 | 2501 ft | 194 kts | 194° |
| 2026-05-05 17:51 | 13.84829 | 100.80246 | 2502 ft | 194 kts | 194° |
| 2026-05-05 17:52 | 13.83516 | 100.79894 | 2497 ft | 194 kts | 194° |
| 2026-05-05 17:52 | 13.82210 | 100.79546 | 2498 ft | 194 kts | 194° |
| 2026-05-05 17:52 | 13.80902 | 100.79201 | 2400 ft | 194 kts | 194° |
| 2026-05-05 17:52 | 13.79611 | 100.78862 | 2104 ft | 186 kts | 194° |
| 2026-05-05 17:53 | 13.78403 | 100.78541 | 1830 ft | 175 kts | 195° |
| 2026-05-05 17:53 | 13.77255 | 100.78238 | 1642 ft | 166 kts | 194° |
| 2026-05-05 17:53 | 13.76175 | 100.77952 | 1401 ft | 155 kts | 194° |
| 2026-05-05 17:53 | 13.75150 | 100.77681 | 1227 ft | 148 kts | 195° |
| 2026-05-05 17:54 | 13.74178 | 100.77424 | 1025 ft | 140 kts | 194° |
| 2026-05-05 17:54 | 13.73262 | 100.77182 | 860 ft | 134 kts | 194° |
| 2026-05-05 17:54 | 13.72354 | 100.76941 | 671 ft | 135 kts | 194° |
| 2026-05-05 17:54 | 13.71446 | 100.76693 | 521 ft | 135 kts | 195° |
| 2026-05-05 17:55 | 13.70536 | 100.76444 | 328 ft | 135 kts | 194° |
| 2026-05-05 17:55 | 13.69619 | 100.76222 | 159 ft | 135 kts | 194° |
| 2026-05-05 17:55 | 13.68716 | 100.75985 | 42 ft | 133 kts | 195° |
| 2026-05-05 17:55 | 13.67903 | 100.75772 | 18 ft | 86 kts | 195° |
| 2026-05-05 17:56 | 13.67601 | 100.75673 | 18 ft | 33 kts | 212° |
| 2026-05-05 17:56 | 13.67459 | 100.75546 | 20 ft | 23 kts | 234° |
| 2026-05-05 17:56 | 13.67458 | 100.75478 | 22 ft | 4 kts | 328° |
| 2026-05-05 17:56 | 13.67496 | 100.75472 | 20 ft | 6 kts | 7° |
| 2026-05-05 17:57 | 13.67549 | 100.75488 | 20 ft | 9 kts | 17° |
| 2026-05-05 17:57 | 13.67589 | 100.75499 | 20 ft | 0 kts | 14° |
| 2026-05-05 17:59 | 13.67610 | 100.75504 | 20 ft | 8 kts | 14° |
| 2026-05-05 17:59 | 13.67678 | 100.75522 | 20 ft | 12 kts | 14° |
| 2026-05-05 17:59 | 13.67740 | 100.75522 | 20 ft | 5 kts | 323° |
| 2026-05-05 17:59 | 13.67782 | 100.75474 | 20 ft | 11 kts | 315° |
| 2026-05-05 18:00 | 13.67859 | 100.75467 | 20 ft | 13 kts | 11° |
| 2026-05-05 18:00 | 13.67955 | 100.75491 | 20 ft | 16 kts | 14° |
| 2026-05-05 18:00 | 13.68071 | 100.75522 | 20 ft | 19 kts | 15° |
| 2026-05-05 18:00 | 13.68204 | 100.75558 | 20 ft | 21 kts | 15° |
| 2026-05-05 18:01 | 13.68355 | 100.75597 | 20 ft | 21 kts | 14° |
| 2026-05-05 18:01 | 13.68426 | 100.75602 | 20 ft | 8 kts | 347° |
| 2026-05-05 18:01 | 13.68470 | 100.75565 | 20 ft | 10 kts | 304° |
| 2026-05-05 18:01 | 13.68496 | 100.75491 | 20 ft | 12 kts | 284° |
| 2026-05-05 18:02 | 13.68521 | 100.75395 | 20 ft | 15 kts | 284° |
| 2026-05-05 18:02 | 13.68549 | 100.75279 | 20 ft | 18 kts | 284° |
| 2026-05-05 18:02 | 13.68583 | 100.75144 | 20 ft | 21 kts | 284° |
| 2026-05-05 18:02 | 13.68621 | 100.74993 | 20 ft | 23 kts | 284° |
| 2026-05-05 18:03 | 13.68659 | 100.74843 | 20 ft | 21 kts | 284° |
| 2026-05-05 18:03 | 13.68696 | 100.74695 | 20 ft | 22 kts | 284° |
| 2026-05-05 18:03 | 13.68726 | 100.74575 | 20 ft | 10 kts | 284° |
| 2026-05-05 18:03 | 13.68747 | 100.74492 | 21 ft | 13 kts | 284° |
| 2026-05-05 18:04 | 13.68789 | 100.74404 | 21 ft | 15 kts | 327° |
| 2026-05-05 18:04 | 13.68874 | 100.74412 | 20 ft | 12 kts | 17° |
| 2026-05-05 18:04 | 13.68940 | 100.74444 | 22 ft | 10 kts | 57° |
| 2026-05-05 18:04 | 13.68933 | 100.74501 | 20 ft | 7 kts | 102° |
| 2026-05-05 18:05 | 13.68927 | 100.74526 | 20 ft | 1 kts | 104° |
| 2026-05-05 18:05 | 13.68927 | 100.74528 | 20 ft | 0 kts | 103° |